<?xml version="1.0" encoding="UTF-8" standalone="no" ?>
<gpx xmlns="http://www.topografix.com/GPX/1/1" xmlns:xsi="http://www.w3.org/2001/XMLSchema-instance" xsi:schemaLocation="http://www.topografix.com/GPX/1/1 http://www.topografix.com/GPX/1/1/gpx.xsd" version="1.1" creator="VisuGPX - https://www.visugpx.com">
  <metadata>
    <name>La Jaubernie Gruas</name>
    <desc><![CDATA[Rando réalisée le 19 février 2019. Circuit sans problème.]]></desc>
  </metadata>
  <trk>
    <name><![CDATA[20190220093242-F27WH]]></name>
    <trkseg>
      <trkpt lat="44.74877" lon="4.62805">
        <ele>380</ele>
        <time>2019-02-19T07:56:36Z</time>
      </trkpt>
      <trkpt lat="44.74874" lon="4.62785">
        <ele>377</ele>
        <time>2019-02-19T08:02:12Z</time>
      </trkpt>
      <trkpt lat="44.74878" lon="4.62767">
        <ele>381</ele>
        <time>2019-02-19T08:02:33Z</time>
      </trkpt>
      <trkpt lat="44.74875" lon="4.62745">
        <ele>380</ele>
        <time>2019-02-19T08:02:53Z</time>
      </trkpt>
      <trkpt lat="44.74865" lon="4.62718">
        <ele>373</ele>
        <time>2019-02-19T08:03:13Z</time>
      </trkpt>
      <trkpt lat="44.74874" lon="4.62703">
        <ele>365</ele>
        <time>2019-02-19T08:03:47Z</time>
      </trkpt>
      <trkpt lat="44.74893" lon="4.62704">
        <ele>364</ele>
        <time>2019-02-19T08:04:07Z</time>
      </trkpt>
      <trkpt lat="44.74916" lon="4.62708">
        <ele>368</ele>
        <time>2019-02-19T08:04:27Z</time>
      </trkpt>
      <trkpt lat="44.74928" lon="4.62717">
        <ele>381</ele>
        <time>2019-02-19T08:05:18Z</time>
      </trkpt>
      <trkpt lat="44.74941" lon="4.62722">
        <ele>376</ele>
        <time>2019-02-19T08:06:01Z</time>
      </trkpt>
      <trkpt lat="44.74962" lon="4.62731">
        <ele>373</ele>
        <time>2019-02-19T08:06:21Z</time>
      </trkpt>
      <trkpt lat="44.74979" lon="4.6274">
        <ele>385</ele>
        <time>2019-02-19T08:06:41Z</time>
      </trkpt>
      <trkpt lat="44.75002" lon="4.62747">
        <ele>391</ele>
        <time>2019-02-19T08:07:01Z</time>
      </trkpt>
      <trkpt lat="44.75016" lon="4.62747">
        <ele>392</ele>
        <time>2019-02-19T08:07:42Z</time>
      </trkpt>
      <trkpt lat="44.75031" lon="4.62756">
        <ele>392</ele>
        <time>2019-02-19T08:08:02Z</time>
      </trkpt>
      <trkpt lat="44.75049" lon="4.62768">
        <ele>403</ele>
        <time>2019-02-19T08:08:22Z</time>
      </trkpt>
      <trkpt lat="44.75052" lon="4.62787">
        <ele>403</ele>
        <time>2019-02-19T08:09:11Z</time>
      </trkpt>
      <trkpt lat="44.75039" lon="4.62793">
        <ele>416</ele>
        <time>2019-02-19T08:09:34Z</time>
      </trkpt>
      <trkpt lat="44.75049" lon="4.62805">
        <ele>414</ele>
        <time>2019-02-19T08:11:20Z</time>
      </trkpt>
      <trkpt lat="44.7506" lon="4.62818">
        <ele>414</ele>
        <time>2019-02-19T08:11:45Z</time>
      </trkpt>
      <trkpt lat="44.75071" lon="4.62828">
        <ele>422</ele>
        <time>2019-02-19T08:12:06Z</time>
      </trkpt>
      <trkpt lat="44.75076" lon="4.62847">
        <ele>422</ele>
        <time>2019-02-19T08:12:27Z</time>
      </trkpt>
      <trkpt lat="44.75071" lon="4.62866">
        <ele>431</ele>
        <time>2019-02-19T08:13:36Z</time>
      </trkpt>
      <trkpt lat="44.75077" lon="4.62883">
        <ele>435</ele>
        <time>2019-02-19T08:13:58Z</time>
      </trkpt>
      <trkpt lat="44.75078" lon="4.62903">
        <ele>435</ele>
        <time>2019-02-19T08:14:20Z</time>
      </trkpt>
      <trkpt lat="44.75083" lon="4.62945">
        <ele>439</ele>
        <time>2019-02-19T08:14:40Z</time>
      </trkpt>
      <trkpt lat="44.75087" lon="4.62967">
        <ele>438</ele>
        <time>2019-02-19T08:15:00Z</time>
      </trkpt>
      <trkpt lat="44.751" lon="4.62949">
        <ele>445</ele>
        <time>2019-02-19T08:15:20Z</time>
      </trkpt>
      <trkpt lat="44.75103" lon="4.62924">
        <ele>442</ele>
        <time>2019-02-19T08:15:54Z</time>
      </trkpt>
      <trkpt lat="44.75107" lon="4.62983">
        <ele>446</ele>
        <time>2019-02-19T08:16:14Z</time>
      </trkpt>
      <trkpt lat="44.75116" lon="4.63006">
        <ele>445</ele>
        <time>2019-02-19T08:16:34Z</time>
      </trkpt>
      <trkpt lat="44.75136" lon="4.6302">
        <ele>448</ele>
        <time>2019-02-19T08:16:54Z</time>
      </trkpt>
      <trkpt lat="44.75164" lon="4.63033">
        <ele>453</ele>
        <time>2019-02-19T08:17:14Z</time>
      </trkpt>
      <trkpt lat="44.75188" lon="4.63061">
        <ele>452</ele>
        <time>2019-02-19T08:17:34Z</time>
      </trkpt>
      <trkpt lat="44.75206" lon="4.63078">
        <ele>447</ele>
        <time>2019-02-19T08:17:54Z</time>
      </trkpt>
      <trkpt lat="44.75222" lon="4.63103">
        <ele>451</ele>
        <time>2019-02-19T08:18:14Z</time>
      </trkpt>
      <trkpt lat="44.75246" lon="4.63126">
        <ele>454</ele>
        <time>2019-02-19T08:18:34Z</time>
      </trkpt>
      <trkpt lat="44.75261" lon="4.63144">
        <ele>454</ele>
        <time>2019-02-19T08:18:54Z</time>
      </trkpt>
      <trkpt lat="44.75281" lon="4.63159">
        <ele>458</ele>
        <time>2019-02-19T08:19:14Z</time>
      </trkpt>
      <trkpt lat="44.75303" lon="4.63168">
        <ele>465</ele>
        <time>2019-02-19T08:19:34Z</time>
      </trkpt>
      <trkpt lat="44.75315" lon="4.63196">
        <ele>463</ele>
        <time>2019-02-19T08:19:54Z</time>
      </trkpt>
      <trkpt lat="44.75323" lon="4.63233">
        <ele>468</ele>
        <time>2019-02-19T08:20:14Z</time>
      </trkpt>
      <trkpt lat="44.75333" lon="4.63258">
        <ele>466</ele>
        <time>2019-02-19T08:20:34Z</time>
      </trkpt>
      <trkpt lat="44.75336" lon="4.63294">
        <ele>468</ele>
        <time>2019-02-19T08:20:54Z</time>
      </trkpt>
      <trkpt lat="44.75331" lon="4.63324">
        <ele>470</ele>
        <time>2019-02-19T08:21:14Z</time>
      </trkpt>
      <trkpt lat="44.75321" lon="4.63341">
        <ele>470</ele>
        <time>2019-02-19T08:21:34Z</time>
      </trkpt>
      <trkpt lat="44.75311" lon="4.63371">
        <ele>466</ele>
        <time>2019-02-19T08:21:54Z</time>
      </trkpt>
      <trkpt lat="44.75309" lon="4.63409">
        <ele>462</ele>
        <time>2019-02-19T08:22:14Z</time>
      </trkpt>
      <trkpt lat="44.75318" lon="4.63427">
        <ele>462</ele>
        <time>2019-02-19T08:22:34Z</time>
      </trkpt>
      <trkpt lat="44.75332" lon="4.63448">
        <ele>466</ele>
        <time>2019-02-19T08:22:54Z</time>
      </trkpt>
      <trkpt lat="44.7536" lon="4.63459">
        <ele>464</ele>
        <time>2019-02-19T08:23:14Z</time>
      </trkpt>
      <trkpt lat="44.75385" lon="4.63462">
        <ele>465</ele>
        <time>2019-02-19T08:23:34Z</time>
      </trkpt>
      <trkpt lat="44.75409" lon="4.63457">
        <ele>473</ele>
        <time>2019-02-19T08:23:54Z</time>
      </trkpt>
      <trkpt lat="44.75438" lon="4.63452">
        <ele>470</ele>
        <time>2019-02-19T08:24:14Z</time>
      </trkpt>
      <trkpt lat="44.7546" lon="4.63448">
        <ele>470</ele>
        <time>2019-02-19T08:24:34Z</time>
      </trkpt>
      <trkpt lat="44.75492" lon="4.63446">
        <ele>474</ele>
        <time>2019-02-19T08:24:54Z</time>
      </trkpt>
      <trkpt lat="44.75512" lon="4.63449">
        <ele>474</ele>
        <time>2019-02-19T08:25:14Z</time>
      </trkpt>
      <trkpt lat="44.75527" lon="4.63456">
        <ele>481</ele>
        <time>2019-02-19T08:25:34Z</time>
      </trkpt>
      <trkpt lat="44.75547" lon="4.63464">
        <ele>476</ele>
        <time>2019-02-19T08:25:54Z</time>
      </trkpt>
      <trkpt lat="44.75568" lon="4.63477">
        <ele>476</ele>
        <time>2019-02-19T08:26:14Z</time>
      </trkpt>
      <trkpt lat="44.75581" lon="4.63484">
        <ele>481</ele>
        <time>2019-02-19T08:26:36Z</time>
      </trkpt>
      <trkpt lat="44.75613" lon="4.63502">
        <ele>476</ele>
        <time>2019-02-19T08:26:56Z</time>
      </trkpt>
      <trkpt lat="44.75644" lon="4.63524">
        <ele>472</ele>
        <time>2019-02-19T08:27:16Z</time>
      </trkpt>
      <trkpt lat="44.75661" lon="4.63531">
        <ele>483</ele>
        <time>2019-02-19T08:27:36Z</time>
      </trkpt>
      <trkpt lat="44.75682" lon="4.63543">
        <ele>492</ele>
        <time>2019-02-19T08:27:56Z</time>
      </trkpt>
      <trkpt lat="44.75692" lon="4.63569">
        <ele>492</ele>
        <time>2019-02-19T08:28:16Z</time>
      </trkpt>
      <trkpt lat="44.75674" lon="4.63598">
        <ele>481</ele>
        <time>2019-02-19T08:28:36Z</time>
      </trkpt>
      <trkpt lat="44.75659" lon="4.63627">
        <ele>487</ele>
        <time>2019-02-19T08:28:56Z</time>
      </trkpt>
      <trkpt lat="44.75646" lon="4.63653">
        <ele>479</ele>
        <time>2019-02-19T08:29:16Z</time>
      </trkpt>
      <trkpt lat="44.75634" lon="4.63684">
        <ele>487</ele>
        <time>2019-02-19T08:29:36Z</time>
      </trkpt>
      <trkpt lat="44.7563" lon="4.63714">
        <ele>496</ele>
        <time>2019-02-19T08:29:56Z</time>
      </trkpt>
      <trkpt lat="44.75617" lon="4.63744">
        <ele>491</ele>
        <time>2019-02-19T08:30:16Z</time>
      </trkpt>
      <trkpt lat="44.75603" lon="4.63765">
        <ele>500</ele>
        <time>2019-02-19T08:30:36Z</time>
      </trkpt>
      <trkpt lat="44.75587" lon="4.63787">
        <ele>488</ele>
        <time>2019-02-19T08:30:56Z</time>
      </trkpt>
      <trkpt lat="44.75571" lon="4.63812">
        <ele>497</ele>
        <time>2019-02-19T08:31:16Z</time>
      </trkpt>
      <trkpt lat="44.75553" lon="4.63839">
        <ele>494</ele>
        <time>2019-02-19T08:31:36Z</time>
      </trkpt>
      <trkpt lat="44.75544" lon="4.63862">
        <ele>500</ele>
        <time>2019-02-19T08:31:56Z</time>
      </trkpt>
      <trkpt lat="44.75528" lon="4.63888">
        <ele>495</ele>
        <time>2019-02-19T08:32:16Z</time>
      </trkpt>
      <trkpt lat="44.75515" lon="4.63925">
        <ele>501</ele>
        <time>2019-02-19T08:32:36Z</time>
      </trkpt>
      <trkpt lat="44.75502" lon="4.6395">
        <ele>497</ele>
        <time>2019-02-19T08:32:56Z</time>
      </trkpt>
      <trkpt lat="44.75498" lon="4.63984">
        <ele>501</ele>
        <time>2019-02-19T08:33:16Z</time>
      </trkpt>
      <trkpt lat="44.75499" lon="4.6402">
        <ele>501</ele>
        <time>2019-02-19T08:33:36Z</time>
      </trkpt>
      <trkpt lat="44.75491" lon="4.64053">
        <ele>500</ele>
        <time>2019-02-19T08:33:56Z</time>
      </trkpt>
      <trkpt lat="44.75486" lon="4.64072">
        <ele>495</ele>
        <time>2019-02-19T08:34:16Z</time>
      </trkpt>
      <trkpt lat="44.75495" lon="4.64093">
        <ele>501</ele>
        <time>2019-02-19T08:34:36Z</time>
      </trkpt>
      <trkpt lat="44.75512" lon="4.64087">
        <ele>501</ele>
        <time>2019-02-19T08:34:56Z</time>
      </trkpt>
      <trkpt lat="44.75532" lon="4.64075">
        <ele>502</ele>
        <time>2019-02-19T08:35:16Z</time>
      </trkpt>
      <trkpt lat="44.75557" lon="4.6406">
        <ele>503</ele>
        <time>2019-02-19T08:35:36Z</time>
      </trkpt>
      <trkpt lat="44.75566" lon="4.64045">
        <ele>503</ele>
        <time>2019-02-19T08:36:05Z</time>
      </trkpt>
      <trkpt lat="44.75591" lon="4.64027">
        <ele>505</ele>
        <time>2019-02-19T08:36:25Z</time>
      </trkpt>
      <trkpt lat="44.75606" lon="4.64013">
        <ele>506</ele>
        <time>2019-02-19T08:36:45Z</time>
      </trkpt>
      <trkpt lat="44.75625" lon="4.64">
        <ele>506</ele>
        <time>2019-02-19T08:37:05Z</time>
      </trkpt>
      <trkpt lat="44.75653" lon="4.63989">
        <ele>506</ele>
        <time>2019-02-19T08:37:25Z</time>
      </trkpt>
      <trkpt lat="44.75679" lon="4.63974">
        <ele>513</ele>
        <time>2019-02-19T08:37:45Z</time>
      </trkpt>
      <trkpt lat="44.75701" lon="4.63956">
        <ele>516</ele>
        <time>2019-02-19T08:38:05Z</time>
      </trkpt>
      <trkpt lat="44.75716" lon="4.63949">
        <ele>514</ele>
        <time>2019-02-19T08:38:25Z</time>
      </trkpt>
      <trkpt lat="44.75739" lon="4.63949">
        <ele>514</ele>
        <time>2019-02-19T08:38:45Z</time>
      </trkpt>
      <trkpt lat="44.75765" lon="4.63955">
        <ele>519</ele>
        <time>2019-02-19T08:39:05Z</time>
      </trkpt>
      <trkpt lat="44.75793" lon="4.63971">
        <ele>515</ele>
        <time>2019-02-19T08:39:25Z</time>
      </trkpt>
      <trkpt lat="44.75814" lon="4.63976">
        <ele>515</ele>
        <time>2019-02-19T08:39:45Z</time>
      </trkpt>
      <trkpt lat="44.75827" lon="4.63999">
        <ele>518</ele>
        <time>2019-02-19T08:40:05Z</time>
      </trkpt>
      <trkpt lat="44.75828" lon="4.64033">
        <ele>519</ele>
        <time>2019-02-19T08:40:25Z</time>
      </trkpt>
      <trkpt lat="44.75825" lon="4.64062">
        <ele>522</ele>
        <time>2019-02-19T08:40:45Z</time>
      </trkpt>
      <trkpt lat="44.75822" lon="4.64092">
        <ele>524</ele>
        <time>2019-02-19T08:41:05Z</time>
      </trkpt>
      <trkpt lat="44.75833" lon="4.64118">
        <ele>524</ele>
        <time>2019-02-19T08:41:25Z</time>
      </trkpt>
      <trkpt lat="44.75852" lon="4.64139">
        <ele>531</ele>
        <time>2019-02-19T08:41:45Z</time>
      </trkpt>
      <trkpt lat="44.75865" lon="4.64166">
        <ele>527</ele>
        <time>2019-02-19T08:42:05Z</time>
      </trkpt>
      <trkpt lat="44.75881" lon="4.64183">
        <ele>532</ele>
        <time>2019-02-19T08:42:25Z</time>
      </trkpt>
      <trkpt lat="44.75895" lon="4.64205">
        <ele>532</ele>
        <time>2019-02-19T08:42:45Z</time>
      </trkpt>
      <trkpt lat="44.75912" lon="4.64222">
        <ele>537</ele>
        <time>2019-02-19T08:43:05Z</time>
      </trkpt>
      <trkpt lat="44.75919" lon="4.64239">
        <ele>537</ele>
        <time>2019-02-19T08:43:35Z</time>
      </trkpt>
      <trkpt lat="44.75925" lon="4.64269">
        <ele>535</ele>
        <time>2019-02-19T08:43:55Z</time>
      </trkpt>
      <trkpt lat="44.7593" lon="4.64299">
        <ele>533</ele>
        <time>2019-02-19T08:44:15Z</time>
      </trkpt>
      <trkpt lat="44.75952" lon="4.64324">
        <ele>540</ele>
        <time>2019-02-19T08:44:35Z</time>
      </trkpt>
      <trkpt lat="44.75972" lon="4.64337">
        <ele>547</ele>
        <time>2019-02-19T08:44:55Z</time>
      </trkpt>
      <trkpt lat="44.75979" lon="4.64353">
        <ele>547</ele>
        <time>2019-02-19T08:45:16Z</time>
      </trkpt>
      <trkpt lat="44.75972" lon="4.6437">
        <ele>547</ele>
        <time>2019-02-19T08:45:38Z</time>
      </trkpt>
      <trkpt lat="44.75966" lon="4.64398">
        <ele>552</ele>
        <time>2019-02-19T08:45:58Z</time>
      </trkpt>
      <trkpt lat="44.75974" lon="4.64428">
        <ele>555</ele>
        <time>2019-02-19T08:46:18Z</time>
      </trkpt>
      <trkpt lat="44.75986" lon="4.6445">
        <ele>564</ele>
        <time>2019-02-19T08:46:38Z</time>
      </trkpt>
      <trkpt lat="44.75999" lon="4.64473">
        <ele>562</ele>
        <time>2019-02-19T08:46:58Z</time>
      </trkpt>
      <trkpt lat="44.75999" lon="4.64498">
        <ele>563</ele>
        <time>2019-02-19T08:47:18Z</time>
      </trkpt>
      <trkpt lat="44.75995" lon="4.6452">
        <ele>565</ele>
        <time>2019-02-19T08:47:38Z</time>
      </trkpt>
      <trkpt lat="44.75986" lon="4.6455">
        <ele>559</ele>
        <time>2019-02-19T08:47:58Z</time>
      </trkpt>
      <trkpt lat="44.75979" lon="4.64575">
        <ele>562</ele>
        <time>2019-02-19T08:48:18Z</time>
      </trkpt>
      <trkpt lat="44.75971" lon="4.64606">
        <ele>567</ele>
        <time>2019-02-19T08:48:38Z</time>
      </trkpt>
      <trkpt lat="44.7596" lon="4.64633">
        <ele>572</ele>
        <time>2019-02-19T08:48:58Z</time>
      </trkpt>
      <trkpt lat="44.75944" lon="4.64659">
        <ele>571</ele>
        <time>2019-02-19T08:49:18Z</time>
      </trkpt>
      <trkpt lat="44.7593" lon="4.64682">
        <ele>565</ele>
        <time>2019-02-19T08:49:38Z</time>
      </trkpt>
      <trkpt lat="44.75921" lon="4.64699">
        <ele>565</ele>
        <time>2019-02-19T08:49:58Z</time>
      </trkpt>
      <trkpt lat="44.75917" lon="4.64718">
        <ele>569</ele>
        <time>2019-02-19T08:53:05Z</time>
      </trkpt>
      <trkpt lat="44.75931" lon="4.64713">
        <ele>576</ele>
        <time>2019-02-19T08:53:27Z</time>
      </trkpt>
      <trkpt lat="44.7595" lon="4.64702">
        <ele>574</ele>
        <time>2019-02-19T08:53:47Z</time>
      </trkpt>
      <trkpt lat="44.75965" lon="4.64703">
        <ele>583</ele>
        <time>2019-02-19T08:54:07Z</time>
      </trkpt>
      <trkpt lat="44.75977" lon="4.64715">
        <ele>579</ele>
        <time>2019-02-19T08:54:27Z</time>
      </trkpt>
      <trkpt lat="44.75995" lon="4.64724">
        <ele>578</ele>
        <time>2019-02-19T08:54:47Z</time>
      </trkpt>
      <trkpt lat="44.76014" lon="4.64734">
        <ele>579</ele>
        <time>2019-02-19T08:55:07Z</time>
      </trkpt>
      <trkpt lat="44.76046" lon="4.64748">
        <ele>573</ele>
        <time>2019-02-19T08:55:27Z</time>
      </trkpt>
      <trkpt lat="44.76069" lon="4.64763">
        <ele>573</ele>
        <time>2019-02-19T08:55:47Z</time>
      </trkpt>
      <trkpt lat="44.76092" lon="4.64768">
        <ele>565</ele>
        <time>2019-02-19T08:56:07Z</time>
      </trkpt>
      <trkpt lat="44.76112" lon="4.64774">
        <ele>567</ele>
        <time>2019-02-19T08:56:27Z</time>
      </trkpt>
      <trkpt lat="44.76137" lon="4.64781">
        <ele>564</ele>
        <time>2019-02-19T08:56:47Z</time>
      </trkpt>
      <trkpt lat="44.76164" lon="4.64776">
        <ele>559</ele>
        <time>2019-02-19T08:57:07Z</time>
      </trkpt>
      <trkpt lat="44.76184" lon="4.64763">
        <ele>567</ele>
        <time>2019-02-19T08:57:27Z</time>
      </trkpt>
      <trkpt lat="44.76201" lon="4.64745">
        <ele>567</ele>
        <time>2019-02-19T08:57:47Z</time>
      </trkpt>
      <trkpt lat="44.76226" lon="4.64734">
        <ele>567</ele>
        <time>2019-02-19T08:58:07Z</time>
      </trkpt>
      <trkpt lat="44.76247" lon="4.64714">
        <ele>553</ele>
        <time>2019-02-19T08:58:27Z</time>
      </trkpt>
      <trkpt lat="44.76266" lon="4.6469">
        <ele>547</ele>
        <time>2019-02-19T08:58:47Z</time>
      </trkpt>
      <trkpt lat="44.76286" lon="4.64666">
        <ele>560</ele>
        <time>2019-02-19T08:59:07Z</time>
      </trkpt>
      <trkpt lat="44.76308" lon="4.64653">
        <ele>546</ele>
        <time>2019-02-19T08:59:27Z</time>
      </trkpt>
      <trkpt lat="44.76329" lon="4.64634">
        <ele>553</ele>
        <time>2019-02-19T08:59:47Z</time>
      </trkpt>
      <trkpt lat="44.76344" lon="4.64648">
        <ele>553</ele>
        <time>2019-02-19T09:00:07Z</time>
      </trkpt>
      <trkpt lat="44.76367" lon="4.64667">
        <ele>548</ele>
        <time>2019-02-19T09:00:27Z</time>
      </trkpt>
      <trkpt lat="44.76384" lon="4.6469">
        <ele>543</ele>
        <time>2019-02-19T09:00:47Z</time>
      </trkpt>
      <trkpt lat="44.76402" lon="4.64708">
        <ele>543</ele>
        <time>2019-02-19T09:01:07Z</time>
      </trkpt>
      <trkpt lat="44.76427" lon="4.64727">
        <ele>541</ele>
        <time>2019-02-19T09:01:27Z</time>
      </trkpt>
      <trkpt lat="44.76442" lon="4.64744">
        <ele>536</ele>
        <time>2019-02-19T09:01:47Z</time>
      </trkpt>
      <trkpt lat="44.76458" lon="4.64737">
        <ele>536</ele>
        <time>2019-02-19T09:02:07Z</time>
      </trkpt>
      <trkpt lat="44.76479" lon="4.64712">
        <ele>542</ele>
        <time>2019-02-19T09:02:27Z</time>
      </trkpt>
      <trkpt lat="44.76494" lon="4.64695">
        <ele>535</ele>
        <time>2019-02-19T09:02:47Z</time>
      </trkpt>
      <trkpt lat="44.76501" lon="4.64678">
        <ele>542</ele>
        <time>2019-02-19T09:03:11Z</time>
      </trkpt>
      <trkpt lat="44.76512" lon="4.64654">
        <ele>542</ele>
        <time>2019-02-19T09:03:31Z</time>
      </trkpt>
      <trkpt lat="44.76536" lon="4.64627">
        <ele>535</ele>
        <time>2019-02-19T09:03:51Z</time>
      </trkpt>
      <trkpt lat="44.76546" lon="4.64599">
        <ele>528</ele>
        <time>2019-02-19T09:04:11Z</time>
      </trkpt>
      <trkpt lat="44.76553" lon="4.64568">
        <ele>543</ele>
        <time>2019-02-19T09:04:31Z</time>
      </trkpt>
      <trkpt lat="44.7657" lon="4.64534">
        <ele>536</ele>
        <time>2019-02-19T09:04:51Z</time>
      </trkpt>
      <trkpt lat="44.76583" lon="4.64498">
        <ele>542</ele>
        <time>2019-02-19T09:05:11Z</time>
      </trkpt>
      <trkpt lat="44.76601" lon="4.64485">
        <ele>539</ele>
        <time>2019-02-19T09:05:31Z</time>
      </trkpt>
      <trkpt lat="44.76623" lon="4.64468">
        <ele>539</ele>
        <time>2019-02-19T09:05:51Z</time>
      </trkpt>
      <trkpt lat="44.76644" lon="4.64455">
        <ele>545</ele>
        <time>2019-02-19T09:06:11Z</time>
      </trkpt>
      <trkpt lat="44.76661" lon="4.64448">
        <ele>543</ele>
        <time>2019-02-19T09:06:31Z</time>
      </trkpt>
      <trkpt lat="44.76681" lon="4.6443">
        <ele>551</ele>
        <time>2019-02-19T09:06:51Z</time>
      </trkpt>
      <trkpt lat="44.76697" lon="4.64405">
        <ele>551</ele>
        <time>2019-02-19T09:07:11Z</time>
      </trkpt>
      <trkpt lat="44.76711" lon="4.64402">
        <ele>560</ele>
        <time>2019-02-19T09:07:34Z</time>
      </trkpt>
      <trkpt lat="44.76724" lon="4.64429">
        <ele>559</ele>
        <time>2019-02-19T09:07:54Z</time>
      </trkpt>
      <trkpt lat="44.76731" lon="4.64447">
        <ele>555</ele>
        <time>2019-02-19T09:08:14Z</time>
      </trkpt>
      <trkpt lat="44.76741" lon="4.64462">
        <ele>553</ele>
        <time>2019-02-19T09:08:34Z</time>
      </trkpt>
      <trkpt lat="44.76745" lon="4.64441">
        <ele>560</ele>
        <time>2019-02-19T09:08:54Z</time>
      </trkpt>
      <trkpt lat="44.7675" lon="4.64422">
        <ele>565</ele>
        <time>2019-02-19T09:09:16Z</time>
      </trkpt>
      <trkpt lat="44.76751" lon="4.64392">
        <ele>568</ele>
        <time>2019-02-19T09:09:36Z</time>
      </trkpt>
      <trkpt lat="44.76753" lon="4.64363">
        <ele>571</ele>
        <time>2019-02-19T09:09:56Z</time>
      </trkpt>
      <trkpt lat="44.76753" lon="4.64344">
        <ele>574</ele>
        <time>2019-02-19T09:10:16Z</time>
      </trkpt>
      <trkpt lat="44.76755" lon="4.64324">
        <ele>574</ele>
        <time>2019-02-19T09:10:38Z</time>
      </trkpt>
      <trkpt lat="44.76772" lon="4.64307">
        <ele>587</ele>
        <time>2019-02-19T09:10:58Z</time>
      </trkpt>
      <trkpt lat="44.76777" lon="4.6428">
        <ele>590</ele>
        <time>2019-02-19T09:11:18Z</time>
      </trkpt>
      <trkpt lat="44.76772" lon="4.64251">
        <ele>594</ele>
        <time>2019-02-19T09:11:38Z</time>
      </trkpt>
      <trkpt lat="44.76772" lon="4.64223">
        <ele>596</ele>
        <time>2019-02-19T09:11:58Z</time>
      </trkpt>
      <trkpt lat="44.76779" lon="4.64201">
        <ele>598</ele>
        <time>2019-02-19T09:12:18Z</time>
      </trkpt>
      <trkpt lat="44.76796" lon="4.64199">
        <ele>607</ele>
        <time>2019-02-19T09:12:38Z</time>
      </trkpt>
      <trkpt lat="44.76798" lon="4.64223">
        <ele>604</ele>
        <time>2019-02-19T09:12:58Z</time>
      </trkpt>
      <trkpt lat="44.76799" lon="4.64243">
        <ele>603</ele>
        <time>2019-02-19T09:13:20Z</time>
      </trkpt>
      <trkpt lat="44.76807" lon="4.64261">
        <ele>603</ele>
        <time>2019-02-19T09:13:40Z</time>
      </trkpt>
      <trkpt lat="44.76811" lon="4.64292">
        <ele>598</ele>
        <time>2019-02-19T09:14:00Z</time>
      </trkpt>
      <trkpt lat="44.76816" lon="4.64317">
        <ele>598</ele>
        <time>2019-02-19T09:14:20Z</time>
      </trkpt>
      <trkpt lat="44.76822" lon="4.64298">
        <ele>609</ele>
        <time>2019-02-19T09:14:40Z</time>
      </trkpt>
      <trkpt lat="44.76829" lon="4.6428">
        <ele>612</ele>
        <time>2019-02-19T09:15:00Z</time>
      </trkpt>
      <trkpt lat="44.76846" lon="4.64262">
        <ele>616</ele>
        <time>2019-02-19T09:15:20Z</time>
      </trkpt>
      <trkpt lat="44.76855" lon="4.64242">
        <ele>626</ele>
        <time>2019-02-19T09:15:40Z</time>
      </trkpt>
      <trkpt lat="44.76857" lon="4.64218">
        <ele>629</ele>
        <time>2019-02-19T09:16:00Z</time>
      </trkpt>
      <trkpt lat="44.76853" lon="4.64193">
        <ele>631</ele>
        <time>2019-02-19T09:16:20Z</time>
      </trkpt>
      <trkpt lat="44.76862" lon="4.64169">
        <ele>633</ele>
        <time>2019-02-19T09:16:40Z</time>
      </trkpt>
      <trkpt lat="44.76867" lon="4.64146">
        <ele>633</ele>
        <time>2019-02-19T09:17:00Z</time>
      </trkpt>
      <trkpt lat="44.76871" lon="4.64127">
        <ele>633</ele>
        <time>2019-02-19T09:17:23Z</time>
      </trkpt>
      <trkpt lat="44.76877" lon="4.641">
        <ele>647</ele>
        <time>2019-02-19T09:17:43Z</time>
      </trkpt>
      <trkpt lat="44.76873" lon="4.64079">
        <ele>639</ele>
        <time>2019-02-19T09:18:03Z</time>
      </trkpt>
      <trkpt lat="44.76878" lon="4.64053">
        <ele>652</ele>
        <time>2019-02-19T09:18:23Z</time>
      </trkpt>
      <trkpt lat="44.76874" lon="4.64026">
        <ele>644</ele>
        <time>2019-02-19T09:18:43Z</time>
      </trkpt>
      <trkpt lat="44.7687" lon="4.63997">
        <ele>648</ele>
        <time>2019-02-19T09:19:03Z</time>
      </trkpt>
      <trkpt lat="44.76884" lon="4.63999">
        <ele>658</ele>
        <time>2019-02-19T09:19:57Z</time>
      </trkpt>
      <trkpt lat="44.769" lon="4.64015">
        <ele>654</ele>
        <time>2019-02-19T09:20:17Z</time>
      </trkpt>
      <trkpt lat="44.76911" lon="4.64028">
        <ele>668</ele>
        <time>2019-02-19T09:20:40Z</time>
      </trkpt>
      <trkpt lat="44.76926" lon="4.64048">
        <ele>665</ele>
        <time>2019-02-19T09:21:00Z</time>
      </trkpt>
      <trkpt lat="44.76935" lon="4.64064">
        <ele>678</ele>
        <time>2019-02-19T09:21:20Z</time>
      </trkpt>
      <trkpt lat="44.76947" lon="4.64075">
        <ele>675</ele>
        <time>2019-02-19T09:21:41Z</time>
      </trkpt>
      <trkpt lat="44.76959" lon="4.64096">
        <ele>686</ele>
        <time>2019-02-19T09:22:01Z</time>
      </trkpt>
      <trkpt lat="44.76969" lon="4.64115">
        <ele>682</ele>
        <time>2019-02-19T09:22:21Z</time>
      </trkpt>
      <trkpt lat="44.76989" lon="4.6412">
        <ele>691</ele>
        <time>2019-02-19T09:22:41Z</time>
      </trkpt>
      <trkpt lat="44.77003" lon="4.64121">
        <ele>691</ele>
        <time>2019-02-19T09:23:08Z</time>
      </trkpt>
      <trkpt lat="44.77018" lon="4.64117">
        <ele>697</ele>
        <time>2019-02-19T09:23:28Z</time>
      </trkpt>
      <trkpt lat="44.77031" lon="4.64109">
        <ele>697</ele>
        <time>2019-02-19T09:23:56Z</time>
      </trkpt>
      <trkpt lat="44.77045" lon="4.64102">
        <ele>699</ele>
        <time>2019-02-19T09:24:16Z</time>
      </trkpt>
      <trkpt lat="44.77059" lon="4.641">
        <ele>699</ele>
        <time>2019-02-19T09:25:15Z</time>
      </trkpt>
      <trkpt lat="44.77079" lon="4.64095">
        <ele>715</ele>
        <time>2019-02-19T09:25:35Z</time>
      </trkpt>
      <trkpt lat="44.77093" lon="4.64089">
        <ele>715</ele>
        <time>2019-02-19T09:25:59Z</time>
      </trkpt>
      <trkpt lat="44.77109" lon="4.64085">
        <ele>719</ele>
        <time>2019-02-19T09:26:19Z</time>
      </trkpt>
      <trkpt lat="44.7712" lon="4.64073">
        <ele>719</ele>
        <time>2019-02-19T09:26:39Z</time>
      </trkpt>
      <trkpt lat="44.77108" lon="4.64062">
        <ele>732</ele>
        <time>2019-02-19T09:26:59Z</time>
      </trkpt>
      <trkpt lat="44.77094" lon="4.64049">
        <ele>727</ele>
        <time>2019-02-19T09:27:19Z</time>
      </trkpt>
      <trkpt lat="44.7708" lon="4.64032">
        <ele>736</ele>
        <time>2019-02-19T09:27:39Z</time>
      </trkpt>
      <trkpt lat="44.77068" lon="4.64022">
        <ele>729</ele>
        <time>2019-02-19T09:28:02Z</time>
      </trkpt>
      <trkpt lat="44.7708" lon="4.64013">
        <ele>745</ele>
        <time>2019-02-19T09:28:45Z</time>
      </trkpt>
      <trkpt lat="44.77097" lon="4.64009">
        <ele>745</ele>
        <time>2019-02-19T09:29:05Z</time>
      </trkpt>
      <trkpt lat="44.77094" lon="4.6399">
        <ele>745</ele>
        <time>2019-02-19T09:29:35Z</time>
      </trkpt>
      <trkpt lat="44.77076" lon="4.63978">
        <ele>752</ele>
        <time>2019-02-19T09:29:55Z</time>
      </trkpt>
      <trkpt lat="44.77085" lon="4.63964">
        <ele>752</ele>
        <time>2019-02-19T09:30:21Z</time>
      </trkpt>
      <trkpt lat="44.77097" lon="4.63955">
        <ele>757</ele>
        <time>2019-02-19T09:30:45Z</time>
      </trkpt>
      <trkpt lat="44.77103" lon="4.63938">
        <ele>762</ele>
        <time>2019-02-19T09:31:13Z</time>
      </trkpt>
      <trkpt lat="44.77094" lon="4.63923">
        <ele>762</ele>
        <time>2019-02-19T09:31:34Z</time>
      </trkpt>
      <trkpt lat="44.77104" lon="4.63911">
        <ele>768</ele>
        <time>2019-02-19T09:31:58Z</time>
      </trkpt>
      <trkpt lat="44.77117" lon="4.63895">
        <ele>774</ele>
        <time>2019-02-19T09:32:18Z</time>
      </trkpt>
      <trkpt lat="44.7713" lon="4.63901">
        <ele>778</ele>
        <time>2019-02-19T09:34:09Z</time>
      </trkpt>
      <trkpt lat="44.77154" lon="4.63911">
        <ele>777</ele>
        <time>2019-02-19T09:34:29Z</time>
      </trkpt>
      <trkpt lat="44.77177" lon="4.63921">
        <ele>777</ele>
        <time>2019-02-19T09:34:49Z</time>
      </trkpt>
      <trkpt lat="44.77195" lon="4.63927">
        <ele>781</ele>
        <time>2019-02-19T09:35:09Z</time>
      </trkpt>
      <trkpt lat="44.77211" lon="4.6394">
        <ele>776</ele>
        <time>2019-02-19T09:35:29Z</time>
      </trkpt>
      <trkpt lat="44.77229" lon="4.63949">
        <ele>776</ele>
        <time>2019-02-19T09:35:49Z</time>
      </trkpt>
      <trkpt lat="44.77246" lon="4.63956">
        <ele>777</ele>
        <time>2019-02-19T09:36:09Z</time>
      </trkpt>
      <trkpt lat="44.77269" lon="4.63965">
        <ele>775</ele>
        <time>2019-02-19T09:36:29Z</time>
      </trkpt>
      <trkpt lat="44.77292" lon="4.63976">
        <ele>780</ele>
        <time>2019-02-19T09:36:49Z</time>
      </trkpt>
      <trkpt lat="44.77312" lon="4.63989">
        <ele>773</ele>
        <time>2019-02-19T09:37:09Z</time>
      </trkpt>
      <trkpt lat="44.77332" lon="4.64003">
        <ele>778</ele>
        <time>2019-02-19T09:37:29Z</time>
      </trkpt>
      <trkpt lat="44.77353" lon="4.64018">
        <ele>775</ele>
        <time>2019-02-19T09:37:49Z</time>
      </trkpt>
      <trkpt lat="44.77374" lon="4.64038">
        <ele>775</ele>
        <time>2019-02-19T09:38:09Z</time>
      </trkpt>
      <trkpt lat="44.77393" lon="4.64063">
        <ele>774</ele>
        <time>2019-02-19T09:38:29Z</time>
      </trkpt>
      <trkpt lat="44.77402" lon="4.64089">
        <ele>770</ele>
        <time>2019-02-19T09:38:49Z</time>
      </trkpt>
      <trkpt lat="44.77411" lon="4.64119">
        <ele>772</ele>
        <time>2019-02-19T09:39:09Z</time>
      </trkpt>
      <trkpt lat="44.77421" lon="4.64155">
        <ele>770</ele>
        <time>2019-02-19T09:39:29Z</time>
      </trkpt>
      <trkpt lat="44.77425" lon="4.64177">
        <ele>770</ele>
        <time>2019-02-19T09:39:49Z</time>
      </trkpt>
      <trkpt lat="44.77423" lon="4.64215">
        <ele>769</ele>
        <time>2019-02-19T09:40:09Z</time>
      </trkpt>
      <trkpt lat="44.77419" lon="4.64251">
        <ele>766</ele>
        <time>2019-02-19T09:40:29Z</time>
      </trkpt>
      <trkpt lat="44.77416" lon="4.64283">
        <ele>766</ele>
        <time>2019-02-19T09:40:49Z</time>
      </trkpt>
      <trkpt lat="44.77406" lon="4.64319">
        <ele>766</ele>
        <time>2019-02-19T09:41:09Z</time>
      </trkpt>
      <trkpt lat="44.77399" lon="4.64351">
        <ele>759</ele>
        <time>2019-02-19T09:41:29Z</time>
      </trkpt>
      <trkpt lat="44.77387" lon="4.64382">
        <ele>760</ele>
        <time>2019-02-19T09:41:49Z</time>
      </trkpt>
      <trkpt lat="44.77374" lon="4.64408">
        <ele>759</ele>
        <time>2019-02-19T09:42:09Z</time>
      </trkpt>
      <trkpt lat="44.77364" lon="4.64444">
        <ele>760</ele>
        <time>2019-02-19T09:42:29Z</time>
      </trkpt>
      <trkpt lat="44.77359" lon="4.64475">
        <ele>760</ele>
        <time>2019-02-19T09:42:49Z</time>
      </trkpt>
      <trkpt lat="44.77355" lon="4.64511">
        <ele>759</ele>
        <time>2019-02-19T09:43:09Z</time>
      </trkpt>
      <trkpt lat="44.77366" lon="4.64541">
        <ele>757</ele>
        <time>2019-02-19T09:43:29Z</time>
      </trkpt>
      <trkpt lat="44.77395" lon="4.6454">
        <ele>756</ele>
        <time>2019-02-19T09:43:49Z</time>
      </trkpt>
      <trkpt lat="44.7742" lon="4.64527">
        <ele>755</ele>
        <time>2019-02-19T09:44:09Z</time>
      </trkpt>
      <trkpt lat="44.7744" lon="4.64515">
        <ele>751</ele>
        <time>2019-02-19T09:44:29Z</time>
      </trkpt>
      <trkpt lat="44.77461" lon="4.64513">
        <ele>752</ele>
        <time>2019-02-19T09:44:49Z</time>
      </trkpt>
      <trkpt lat="44.77481" lon="4.64515">
        <ele>748</ele>
        <time>2019-02-19T09:45:09Z</time>
      </trkpt>
      <trkpt lat="44.77504" lon="4.64515">
        <ele>745</ele>
        <time>2019-02-19T09:45:29Z</time>
      </trkpt>
      <trkpt lat="44.77525" lon="4.6452">
        <ele>745</ele>
        <time>2019-02-19T09:45:49Z</time>
      </trkpt>
      <trkpt lat="44.77549" lon="4.64527">
        <ele>745</ele>
        <time>2019-02-19T09:46:09Z</time>
      </trkpt>
      <trkpt lat="44.77575" lon="4.64533">
        <ele>747</ele>
        <time>2019-02-19T09:46:29Z</time>
      </trkpt>
      <trkpt lat="44.77596" lon="4.64542">
        <ele>740</ele>
        <time>2019-02-19T09:46:49Z</time>
      </trkpt>
      <trkpt lat="44.77615" lon="4.64554">
        <ele>747</ele>
        <time>2019-02-19T09:47:09Z</time>
      </trkpt>
      <trkpt lat="44.77627" lon="4.64585">
        <ele>750</ele>
        <time>2019-02-19T09:47:29Z</time>
      </trkpt>
      <trkpt lat="44.77641" lon="4.64618">
        <ele>744</ele>
        <time>2019-02-19T09:47:49Z</time>
      </trkpt>
      <trkpt lat="44.77646" lon="4.64656">
        <ele>731</ele>
        <time>2019-02-19T09:48:09Z</time>
      </trkpt>
      <trkpt lat="44.77656" lon="4.6468">
        <ele>741</ele>
        <time>2019-02-19T09:48:29Z</time>
      </trkpt>
      <trkpt lat="44.77666" lon="4.64705">
        <ele>735</ele>
        <time>2019-02-19T09:48:49Z</time>
      </trkpt>
      <trkpt lat="44.77673" lon="4.64726">
        <ele>729</ele>
        <time>2019-02-19T09:49:09Z</time>
      </trkpt>
      <trkpt lat="44.7768" lon="4.64758">
        <ele>725</ele>
        <time>2019-02-19T09:49:29Z</time>
      </trkpt>
      <trkpt lat="44.77687" lon="4.64796">
        <ele>731</ele>
        <time>2019-02-19T09:49:49Z</time>
      </trkpt>
      <trkpt lat="44.77688" lon="4.64844">
        <ele>732</ele>
        <time>2019-02-19T09:50:09Z</time>
      </trkpt>
      <trkpt lat="44.77685" lon="4.64882">
        <ele>728</ele>
        <time>2019-02-19T09:50:29Z</time>
      </trkpt>
      <trkpt lat="44.77681" lon="4.64915">
        <ele>725</ele>
        <time>2019-02-19T09:50:49Z</time>
      </trkpt>
      <trkpt lat="44.7768" lon="4.64947">
        <ele>708</ele>
        <time>2019-02-19T09:51:09Z</time>
      </trkpt>
      <trkpt lat="44.77679" lon="4.64978">
        <ele>706</ele>
        <time>2019-02-19T09:51:29Z</time>
      </trkpt>
      <trkpt lat="44.77676" lon="4.64997">
        <ele>705</ele>
        <time>2019-02-19T09:52:26Z</time>
      </trkpt>
      <trkpt lat="44.77675" lon="4.65019">
        <ele>702</ele>
        <time>2019-02-19T09:52:46Z</time>
      </trkpt>
      <trkpt lat="44.77678" lon="4.65051">
        <ele>699</ele>
        <time>2019-02-19T09:53:06Z</time>
      </trkpt>
      <trkpt lat="44.77695" lon="4.65082">
        <ele>704</ele>
        <time>2019-02-19T09:53:26Z</time>
      </trkpt>
      <trkpt lat="44.77714" lon="4.65103">
        <ele>702</ele>
        <time>2019-02-19T09:53:46Z</time>
      </trkpt>
      <trkpt lat="44.77735" lon="4.65113">
        <ele>702</ele>
        <time>2019-02-19T09:54:06Z</time>
      </trkpt>
      <trkpt lat="44.77762" lon="4.65135">
        <ele>696</ele>
        <time>2019-02-19T09:54:26Z</time>
      </trkpt>
      <trkpt lat="44.77784" lon="4.65144">
        <ele>696</ele>
        <time>2019-02-19T09:54:46Z</time>
      </trkpt>
      <trkpt lat="44.778" lon="4.65155">
        <ele>686</ele>
        <time>2019-02-19T09:55:06Z</time>
      </trkpt>
      <trkpt lat="44.77815" lon="4.65158">
        <ele>686</ele>
        <time>2019-02-19T09:55:26Z</time>
      </trkpt>
      <trkpt lat="44.77835" lon="4.65162">
        <ele>685</ele>
        <time>2019-02-19T09:55:46Z</time>
      </trkpt>
      <trkpt lat="44.77863" lon="4.65168">
        <ele>685</ele>
        <time>2019-02-19T09:56:06Z</time>
      </trkpt>
      <trkpt lat="44.77894" lon="4.65183">
        <ele>681</ele>
        <time>2019-02-19T09:56:26Z</time>
      </trkpt>
      <trkpt lat="44.77903" lon="4.65212">
        <ele>675</ele>
        <time>2019-02-19T09:56:46Z</time>
      </trkpt>
      <trkpt lat="44.77906" lon="4.65239">
        <ele>680</ele>
        <time>2019-02-19T09:57:06Z</time>
      </trkpt>
      <trkpt lat="44.77905" lon="4.65266">
        <ele>678</ele>
        <time>2019-02-19T09:57:26Z</time>
      </trkpt>
      <trkpt lat="44.77901" lon="4.65295">
        <ele>663</ele>
        <time>2019-02-19T09:57:46Z</time>
      </trkpt>
      <trkpt lat="44.77898" lon="4.65327">
        <ele>662</ele>
        <time>2019-02-19T09:58:06Z</time>
      </trkpt>
      <trkpt lat="44.77894" lon="4.65364">
        <ele>661</ele>
        <time>2019-02-19T09:58:26Z</time>
      </trkpt>
      <trkpt lat="44.77885" lon="4.65402">
        <ele>660</ele>
        <time>2019-02-19T09:58:46Z</time>
      </trkpt>
      <trkpt lat="44.77882" lon="4.65433">
        <ele>657</ele>
        <time>2019-02-19T09:59:06Z</time>
      </trkpt>
      <trkpt lat="44.77875" lon="4.65467">
        <ele>648</ele>
        <time>2019-02-19T09:59:26Z</time>
      </trkpt>
      <trkpt lat="44.77861" lon="4.65492">
        <ele>649</ele>
        <time>2019-02-19T09:59:46Z</time>
      </trkpt>
      <trkpt lat="44.77844" lon="4.65511">
        <ele>646</ele>
        <time>2019-02-19T10:00:06Z</time>
      </trkpt>
      <trkpt lat="44.77822" lon="4.65535">
        <ele>649</ele>
        <time>2019-02-19T10:00:26Z</time>
      </trkpt>
      <trkpt lat="44.77806" lon="4.6556">
        <ele>644</ele>
        <time>2019-02-19T10:00:46Z</time>
      </trkpt>
      <trkpt lat="44.77793" lon="4.65586">
        <ele>645</ele>
        <time>2019-02-19T10:01:06Z</time>
      </trkpt>
      <trkpt lat="44.77805" lon="4.65601">
        <ele>642</ele>
        <time>2019-02-19T10:01:26Z</time>
      </trkpt>
      <trkpt lat="44.77829" lon="4.65599">
        <ele>638</ele>
        <time>2019-02-19T10:01:46Z</time>
      </trkpt>
      <trkpt lat="44.77846" lon="4.6559">
        <ele>643</ele>
        <time>2019-02-19T10:02:06Z</time>
      </trkpt>
      <trkpt lat="44.77871" lon="4.65578">
        <ele>637</ele>
        <time>2019-02-19T10:02:26Z</time>
      </trkpt>
      <trkpt lat="44.77892" lon="4.65571">
        <ele>634</ele>
        <time>2019-02-19T10:02:46Z</time>
      </trkpt>
      <trkpt lat="44.77911" lon="4.65569">
        <ele>642</ele>
        <time>2019-02-19T10:03:06Z</time>
      </trkpt>
      <trkpt lat="44.77941" lon="4.65564">
        <ele>637</ele>
        <time>2019-02-19T10:03:26Z</time>
      </trkpt>
      <trkpt lat="44.77955" lon="4.65568">
        <ele>637</ele>
        <time>2019-02-19T10:03:46Z</time>
      </trkpt>
      <trkpt lat="44.77978" lon="4.65579">
        <ele>627</ele>
        <time>2019-02-19T10:04:06Z</time>
      </trkpt>
      <trkpt lat="44.77998" lon="4.65595">
        <ele>627</ele>
        <time>2019-02-19T10:04:26Z</time>
      </trkpt>
      <trkpt lat="44.78022" lon="4.65604">
        <ele>624</ele>
        <time>2019-02-19T10:04:46Z</time>
      </trkpt>
      <trkpt lat="44.78028" lon="4.65621">
        <ele>624</ele>
        <time>2019-02-19T10:05:06Z</time>
      </trkpt>
      <trkpt lat="44.78013" lon="4.65645">
        <ele>616</ele>
        <time>2019-02-19T10:05:26Z</time>
      </trkpt>
      <trkpt lat="44.78004" lon="4.65659">
        <ele>612</ele>
        <time>2019-02-19T10:05:46Z</time>
      </trkpt>
      <trkpt lat="44.77996" lon="4.65676">
        <ele>612</ele>
        <time>2019-02-19T10:06:19Z</time>
      </trkpt>
      <trkpt lat="44.77982" lon="4.65708">
        <ele>605</ele>
        <time>2019-02-19T10:06:39Z</time>
      </trkpt>
      <trkpt lat="44.77969" lon="4.65737">
        <ele>604</ele>
        <time>2019-02-19T10:06:59Z</time>
      </trkpt>
      <trkpt lat="44.7796" lon="4.6577">
        <ele>603</ele>
        <time>2019-02-19T10:07:19Z</time>
      </trkpt>
      <trkpt lat="44.7795" lon="4.65795">
        <ele>593</ele>
        <time>2019-02-19T10:07:39Z</time>
      </trkpt>
      <trkpt lat="44.7794" lon="4.6583">
        <ele>594</ele>
        <time>2019-02-19T10:07:59Z</time>
      </trkpt>
      <trkpt lat="44.77933" lon="4.65863">
        <ele>594</ele>
        <time>2019-02-19T10:08:19Z</time>
      </trkpt>
      <trkpt lat="44.77923" lon="4.65895">
        <ele>583</ele>
        <time>2019-02-19T10:08:39Z</time>
      </trkpt>
      <trkpt lat="44.77914" lon="4.65924">
        <ele>585</ele>
        <time>2019-02-19T10:08:59Z</time>
      </trkpt>
      <trkpt lat="44.77909" lon="4.65959">
        <ele>588</ele>
        <time>2019-02-19T10:09:19Z</time>
      </trkpt>
      <trkpt lat="44.779" lon="4.6599">
        <ele>576</ele>
        <time>2019-02-19T10:09:39Z</time>
      </trkpt>
      <trkpt lat="44.7789" lon="4.66021">
        <ele>580</ele>
        <time>2019-02-19T10:09:59Z</time>
      </trkpt>
      <trkpt lat="44.77876" lon="4.66043">
        <ele>584</ele>
        <time>2019-02-19T10:10:19Z</time>
      </trkpt>
      <trkpt lat="44.77861" lon="4.66071">
        <ele>576</ele>
        <time>2019-02-19T10:10:39Z</time>
      </trkpt>
      <trkpt lat="44.77845" lon="4.66099">
        <ele>572</ele>
        <time>2019-02-19T10:10:59Z</time>
      </trkpt>
      <trkpt lat="44.7783" lon="4.66128">
        <ele>574</ele>
        <time>2019-02-19T10:11:19Z</time>
      </trkpt>
      <trkpt lat="44.77816" lon="4.66153">
        <ele>564</ele>
        <time>2019-02-19T10:11:39Z</time>
      </trkpt>
      <trkpt lat="44.77799" lon="4.66177">
        <ele>564</ele>
        <time>2019-02-19T10:11:59Z</time>
      </trkpt>
      <trkpt lat="44.77787" lon="4.66206">
        <ele>562</ele>
        <time>2019-02-19T10:12:19Z</time>
      </trkpt>
      <trkpt lat="44.77779" lon="4.6624">
        <ele>559</ele>
        <time>2019-02-19T10:12:39Z</time>
      </trkpt>
      <trkpt lat="44.77773" lon="4.66258">
        <ele>559</ele>
        <time>2019-02-19T10:13:12Z</time>
      </trkpt>
      <trkpt lat="44.77776" lon="4.66283">
        <ele>553</ele>
        <time>2019-02-19T10:13:32Z</time>
      </trkpt>
      <trkpt lat="44.77797" lon="4.66292">
        <ele>554</ele>
        <time>2019-02-19T10:13:52Z</time>
      </trkpt>
      <trkpt lat="44.77819" lon="4.66299">
        <ele>547</ele>
        <time>2019-02-19T10:14:12Z</time>
      </trkpt>
      <trkpt lat="44.77842" lon="4.66295">
        <ele>548</ele>
        <time>2019-02-19T10:14:32Z</time>
      </trkpt>
      <trkpt lat="44.77863" lon="4.66306">
        <ele>552</ele>
        <time>2019-02-19T10:14:52Z</time>
      </trkpt>
      <trkpt lat="44.77879" lon="4.66324">
        <ele>547</ele>
        <time>2019-02-19T10:15:12Z</time>
      </trkpt>
      <trkpt lat="44.77899" lon="4.66336">
        <ele>547</ele>
        <time>2019-02-19T10:15:32Z</time>
      </trkpt>
      <trkpt lat="44.77916" lon="4.66354">
        <ele>545</ele>
        <time>2019-02-19T10:15:52Z</time>
      </trkpt>
      <trkpt lat="44.77933" lon="4.66376">
        <ele>543</ele>
        <time>2019-02-19T10:16:12Z</time>
      </trkpt>
      <trkpt lat="44.77944" lon="4.66396">
        <ele>543</ele>
        <time>2019-02-19T10:16:32Z</time>
      </trkpt>
      <trkpt lat="44.77958" lon="4.66421">
        <ele>536</ele>
        <time>2019-02-19T10:16:52Z</time>
      </trkpt>
      <trkpt lat="44.77972" lon="4.66427">
        <ele>542</ele>
        <time>2019-02-19T10:17:18Z</time>
      </trkpt>
      <trkpt lat="44.78002" lon="4.66431">
        <ele>533</ele>
        <time>2019-02-19T10:17:38Z</time>
      </trkpt>
      <trkpt lat="44.78031" lon="4.66441">
        <ele>534</ele>
        <time>2019-02-19T10:17:58Z</time>
      </trkpt>
      <trkpt lat="44.78046" lon="4.66441">
        <ele>540</ele>
        <time>2019-02-19T10:18:18Z</time>
      </trkpt>
      <trkpt lat="44.78064" lon="4.66447">
        <ele>540</ele>
        <time>2019-02-19T10:18:38Z</time>
      </trkpt>
      <trkpt lat="44.78083" lon="4.66449">
        <ele>543</ele>
        <time>2019-02-19T10:18:58Z</time>
      </trkpt>
      <trkpt lat="44.78104" lon="4.66453">
        <ele>546</ele>
        <time>2019-02-19T10:19:18Z</time>
      </trkpt>
      <trkpt lat="44.78124" lon="4.66455">
        <ele>546</ele>
        <time>2019-02-19T10:19:38Z</time>
      </trkpt>
      <trkpt lat="44.78149" lon="4.6647">
        <ele>547</ele>
        <time>2019-02-19T10:19:58Z</time>
      </trkpt>
      <trkpt lat="44.78156" lon="4.66486">
        <ele>553</ele>
        <time>2019-02-19T10:20:18Z</time>
      </trkpt>
      <trkpt lat="44.78167" lon="4.66519">
        <ele>547</ele>
        <time>2019-02-19T10:20:38Z</time>
      </trkpt>
      <trkpt lat="44.78166" lon="4.66559">
        <ele>546</ele>
        <time>2019-02-19T10:20:58Z</time>
      </trkpt>
      <trkpt lat="44.78162" lon="4.66594">
        <ele>545</ele>
        <time>2019-02-19T10:21:18Z</time>
      </trkpt>
      <trkpt lat="44.78168" lon="4.66628">
        <ele>539</ele>
        <time>2019-02-19T10:21:38Z</time>
      </trkpt>
      <trkpt lat="44.78179" lon="4.66648">
        <ele>539</ele>
        <time>2019-02-19T10:21:58Z</time>
      </trkpt>
      <trkpt lat="44.78194" lon="4.66663">
        <ele>545</ele>
        <time>2019-02-19T10:22:18Z</time>
      </trkpt>
      <trkpt lat="44.78215" lon="4.66682">
        <ele>545</ele>
        <time>2019-02-19T10:22:38Z</time>
      </trkpt>
      <trkpt lat="44.78232" lon="4.66702">
        <ele>545</ele>
        <time>2019-02-19T10:22:58Z</time>
      </trkpt>
      <trkpt lat="44.78246" lon="4.66715">
        <ele>544</ele>
        <time>2019-02-19T10:23:18Z</time>
      </trkpt>
      <trkpt lat="44.78262" lon="4.66716">
        <ele>544</ele>
        <time>2019-02-19T10:23:38Z</time>
      </trkpt>
      <trkpt lat="44.78288" lon="4.66723">
        <ele>553</ele>
        <time>2019-02-19T10:23:58Z</time>
      </trkpt>
      <trkpt lat="44.78299" lon="4.66735">
        <ele>559</ele>
        <time>2019-02-19T10:25:08Z</time>
      </trkpt>
      <trkpt lat="44.78309" lon="4.66747">
        <ele>551</ele>
        <time>2019-02-19T10:25:32Z</time>
      </trkpt>
      <trkpt lat="44.7832" lon="4.66773">
        <ele>553</ele>
        <time>2019-02-19T10:25:52Z</time>
      </trkpt>
      <trkpt lat="44.78334" lon="4.66794">
        <ele>548</ele>
        <time>2019-02-19T10:26:12Z</time>
      </trkpt>
      <trkpt lat="44.78347" lon="4.66818">
        <ele>548</ele>
        <time>2019-02-19T10:26:32Z</time>
      </trkpt>
      <trkpt lat="44.7835" lon="4.66837">
        <ele>557</ele>
        <time>2019-02-19T10:26:56Z</time>
      </trkpt>
      <trkpt lat="44.78348" lon="4.66863">
        <ele>559</ele>
        <time>2019-02-19T10:27:16Z</time>
      </trkpt>
      <trkpt lat="44.78351" lon="4.6689">
        <ele>561</ele>
        <time>2019-02-19T10:27:36Z</time>
      </trkpt>
      <trkpt lat="44.78361" lon="4.66914">
        <ele>563</ele>
        <time>2019-02-19T10:27:56Z</time>
      </trkpt>
      <trkpt lat="44.7837" lon="4.66929">
        <ele>563</ele>
        <time>2019-02-19T10:28:20Z</time>
      </trkpt>
      <trkpt lat="44.78383" lon="4.66935">
        <ele>569</ele>
        <time>2019-02-19T10:28:45Z</time>
      </trkpt>
      <trkpt lat="44.78395" lon="4.66946">
        <ele>569</ele>
        <time>2019-02-19T10:29:19Z</time>
      </trkpt>
      <trkpt lat="44.78407" lon="4.66962">
        <ele>571</ele>
        <time>2019-02-19T10:29:39Z</time>
      </trkpt>
      <trkpt lat="44.78432" lon="4.66976">
        <ele>577</ele>
        <time>2019-02-19T10:29:59Z</time>
      </trkpt>
      <trkpt lat="44.78442" lon="4.66989">
        <ele>573</ele>
        <time>2019-02-19T10:30:22Z</time>
      </trkpt>
      <trkpt lat="44.78461" lon="4.67">
        <ele>580</ele>
        <time>2019-02-19T10:30:42Z</time>
      </trkpt>
      <trkpt lat="44.78476" lon="4.67007">
        <ele>580</ele>
        <time>2019-02-19T10:31:02Z</time>
      </trkpt>
      <trkpt lat="44.78494" lon="4.67017">
        <ele>577</ele>
        <time>2019-02-19T10:31:22Z</time>
      </trkpt>
      <trkpt lat="44.78517" lon="4.67025">
        <ele>578</ele>
        <time>2019-02-19T10:31:42Z</time>
      </trkpt>
      <trkpt lat="44.7854" lon="4.67032">
        <ele>578</ele>
        <time>2019-02-19T10:32:02Z</time>
      </trkpt>
      <trkpt lat="44.78552" lon="4.67041">
        <ele>586</ele>
        <time>2019-02-19T10:32:24Z</time>
      </trkpt>
      <trkpt lat="44.78572" lon="4.67036">
        <ele>596</ele>
        <time>2019-02-19T10:32:44Z</time>
      </trkpt>
      <trkpt lat="44.78597" lon="4.6703">
        <ele>596</ele>
        <time>2019-02-19T10:33:04Z</time>
      </trkpt>
      <trkpt lat="44.7861" lon="4.67025">
        <ele>600</ele>
        <time>2019-02-19T10:33:29Z</time>
      </trkpt>
      <trkpt lat="44.78633" lon="4.67032">
        <ele>605</ele>
        <time>2019-02-19T10:33:49Z</time>
      </trkpt>
      <trkpt lat="44.78644" lon="4.67053">
        <ele>604</ele>
        <time>2019-02-19T10:34:09Z</time>
      </trkpt>
      <trkpt lat="44.78664" lon="4.67073">
        <ele>609</ele>
        <time>2019-02-19T10:34:29Z</time>
      </trkpt>
      <trkpt lat="44.78671" lon="4.671">
        <ele>609</ele>
        <time>2019-02-19T10:34:49Z</time>
      </trkpt>
      <trkpt lat="44.78683" lon="4.67122">
        <ele>616</ele>
        <time>2019-02-19T10:35:09Z</time>
      </trkpt>
      <trkpt lat="44.78694" lon="4.67144">
        <ele>617</ele>
        <time>2019-02-19T10:35:29Z</time>
      </trkpt>
      <trkpt lat="44.7871" lon="4.67161">
        <ele>622</ele>
        <time>2019-02-19T10:35:49Z</time>
      </trkpt>
      <trkpt lat="44.78721" lon="4.67173">
        <ele>622</ele>
        <time>2019-02-19T10:36:12Z</time>
      </trkpt>
      <trkpt lat="44.78723" lon="4.67202">
        <ele>622</ele>
        <time>2019-02-19T10:36:32Z</time>
      </trkpt>
      <trkpt lat="44.78732" lon="4.67223">
        <ele>622</ele>
        <time>2019-02-19T10:36:52Z</time>
      </trkpt>
      <trkpt lat="44.78741" lon="4.67246">
        <ele>623</ele>
        <time>2019-02-19T10:37:12Z</time>
      </trkpt>
      <trkpt lat="44.78751" lon="4.67264">
        <ele>623</ele>
        <time>2019-02-19T10:37:32Z</time>
      </trkpt>
      <trkpt lat="44.7876" lon="4.6729">
        <ele>624</ele>
        <time>2019-02-19T10:37:52Z</time>
      </trkpt>
      <trkpt lat="44.78768" lon="4.67315">
        <ele>630</ele>
        <time>2019-02-19T10:38:12Z</time>
      </trkpt>
      <trkpt lat="44.78785" lon="4.67328">
        <ele>631</ele>
        <time>2019-02-19T10:38:32Z</time>
      </trkpt>
      <trkpt lat="44.78801" lon="4.6735">
        <ele>634</ele>
        <time>2019-02-19T10:38:52Z</time>
      </trkpt>
      <trkpt lat="44.78807" lon="4.67367">
        <ele>634</ele>
        <time>2019-02-19T10:39:13Z</time>
      </trkpt>
      <trkpt lat="44.78821" lon="4.67391">
        <ele>635</ele>
        <time>2019-02-19T10:39:33Z</time>
      </trkpt>
      <trkpt lat="44.78835" lon="4.67418">
        <ele>632</ele>
        <time>2019-02-19T10:39:53Z</time>
      </trkpt>
      <trkpt lat="44.78846" lon="4.67442">
        <ele>625</ele>
        <time>2019-02-19T10:40:13Z</time>
      </trkpt>
      <trkpt lat="44.78859" lon="4.6747">
        <ele>626</ele>
        <time>2019-02-19T10:40:33Z</time>
      </trkpt>
      <trkpt lat="44.78879" lon="4.67494">
        <ele>627</ele>
        <time>2019-02-19T10:40:53Z</time>
      </trkpt>
      <trkpt lat="44.78887" lon="4.67518">
        <ele>622</ele>
        <time>2019-02-19T10:41:13Z</time>
      </trkpt>
      <trkpt lat="44.78892" lon="4.67519">
        <ele>622</ele>
        <time>2019-02-19T10:41:33Z</time>
      </trkpt>
      <trkpt lat="44.78899" lon="4.67514">
        <ele>622</ele>
        <time>2019-02-19T10:41:53Z</time>
      </trkpt>
      <trkpt lat="44.78921" lon="4.67502">
        <ele>637</ele>
        <time>2019-02-19T10:42:13Z</time>
      </trkpt>
      <trkpt lat="44.78944" lon="4.67496">
        <ele>646</ele>
        <time>2019-02-19T10:42:33Z</time>
      </trkpt>
      <trkpt lat="44.78961" lon="4.6749">
        <ele>655</ele>
        <time>2019-02-19T10:42:53Z</time>
      </trkpt>
      <trkpt lat="44.78981" lon="4.67492">
        <ele>655</ele>
        <time>2019-02-19T10:43:13Z</time>
      </trkpt>
      <trkpt lat="44.78989" lon="4.67503">
        <ele>666</ele>
        <time>2019-02-19T10:43:33Z</time>
      </trkpt>
      <trkpt lat="44.79004" lon="4.6751">
        <ele>666</ele>
        <time>2019-02-19T10:43:53Z</time>
      </trkpt>
      <trkpt lat="44.79017" lon="4.67549">
        <ele>669</ele>
        <time>2019-02-19T10:44:13Z</time>
      </trkpt>
      <trkpt lat="44.79025" lon="4.67569">
        <ele>669</ele>
        <time>2019-02-19T10:44:33Z</time>
      </trkpt>
      <trkpt lat="44.79045" lon="4.67575">
        <ele>671</ele>
        <time>2019-02-19T10:44:53Z</time>
      </trkpt>
      <trkpt lat="44.7905" lon="4.67528">
        <ele>676</ele>
        <time>2019-02-19T10:45:13Z</time>
      </trkpt>
      <trkpt lat="44.79056" lon="4.67495">
        <ele>679</ele>
        <time>2019-02-19T10:45:33Z</time>
      </trkpt>
      <trkpt lat="44.79061" lon="4.67467">
        <ele>684</ele>
        <time>2019-02-19T10:45:53Z</time>
      </trkpt>
      <trkpt lat="44.79061" lon="4.67439">
        <ele>687</ele>
        <time>2019-02-19T10:46:13Z</time>
      </trkpt>
      <trkpt lat="44.79056" lon="4.67419">
        <ele>693</ele>
        <time>2019-02-19T10:46:33Z</time>
      </trkpt>
      <trkpt lat="44.79058" lon="4.674">
        <ele>699</ele>
        <time>2019-02-19T10:46:53Z</time>
      </trkpt>
      <trkpt lat="44.79059" lon="4.67381">
        <ele>699</ele>
        <time>2019-02-19T10:47:13Z</time>
      </trkpt>
      <trkpt lat="44.79065" lon="4.67364">
        <ele>705</ele>
        <time>2019-02-19T10:47:33Z</time>
      </trkpt>
      <trkpt lat="44.79059" lon="4.67346">
        <ele>710</ele>
        <time>2019-02-19T10:47:53Z</time>
      </trkpt>
      <trkpt lat="44.79048" lon="4.67332">
        <ele>710</ele>
        <time>2019-02-19T10:48:13Z</time>
      </trkpt>
      <trkpt lat="44.79049" lon="4.67313">
        <ele>714</ele>
        <time>2019-02-19T10:48:33Z</time>
      </trkpt>
      <trkpt lat="44.7904" lon="4.67293">
        <ele>711</ele>
        <time>2019-02-19T10:48:53Z</time>
      </trkpt>
      <trkpt lat="44.79028" lon="4.67275">
        <ele>715</ele>
        <time>2019-02-19T10:49:13Z</time>
      </trkpt>
      <trkpt lat="44.79021" lon="4.67246">
        <ele>716</ele>
        <time>2019-02-19T10:49:33Z</time>
      </trkpt>
      <trkpt lat="44.79023" lon="4.67216">
        <ele>715</ele>
        <time>2019-02-19T10:49:53Z</time>
      </trkpt>
      <trkpt lat="44.79022" lon="4.67158">
        <ele>713</ele>
        <time>2019-02-19T10:50:13Z</time>
      </trkpt>
      <trkpt lat="44.79015" lon="4.67149">
        <ele>713</ele>
        <time>2019-02-19T10:50:33Z</time>
      </trkpt>
      <trkpt lat="44.79009" lon="4.67128">
        <ele>714</ele>
        <time>2019-02-19T10:50:53Z</time>
      </trkpt>
      <trkpt lat="44.78998" lon="4.67127">
        <ele>714</ele>
        <time>2019-02-19T10:51:13Z</time>
      </trkpt>
      <trkpt lat="44.78993" lon="4.67109">
        <ele>713</ele>
        <time>2019-02-19T10:51:33Z</time>
      </trkpt>
      <trkpt lat="44.78993" lon="4.67092">
        <ele>713</ele>
        <time>2019-02-19T10:51:54Z</time>
      </trkpt>
      <trkpt lat="44.78997" lon="4.67067">
        <ele>710</ele>
        <time>2019-02-19T10:52:14Z</time>
      </trkpt>
      <trkpt lat="44.78994" lon="4.67058">
        <ele>710</ele>
        <time>2019-02-19T10:52:34Z</time>
      </trkpt>
      <trkpt lat="44.78988" lon="4.67054">
        <ele>710</ele>
        <time>2019-02-19T10:52:54Z</time>
      </trkpt>
      <trkpt lat="44.78986" lon="4.67033">
        <ele>712</ele>
        <time>2019-02-19T10:53:14Z</time>
      </trkpt>
      <trkpt lat="44.78978" lon="4.67009">
        <ele>714</ele>
        <time>2019-02-19T10:53:34Z</time>
      </trkpt>
      <trkpt lat="44.7896" lon="4.66977">
        <ele>716</ele>
        <time>2019-02-19T10:53:54Z</time>
      </trkpt>
      <trkpt lat="44.78948" lon="4.66946">
        <ele>719</ele>
        <time>2019-02-19T10:54:14Z</time>
      </trkpt>
      <trkpt lat="44.78937" lon="4.66919">
        <ele>719</ele>
        <time>2019-02-19T10:54:34Z</time>
      </trkpt>
      <trkpt lat="44.78915" lon="4.6691">
        <ele>716</ele>
        <time>2019-02-19T10:55:06Z</time>
      </trkpt>
      <trkpt lat="44.78912" lon="4.66869">
        <ele>714</ele>
        <time>2019-02-19T10:55:26Z</time>
      </trkpt>
      <trkpt lat="44.78911" lon="4.66841">
        <ele>714</ele>
        <time>2019-02-19T10:55:46Z</time>
      </trkpt>
      <trkpt lat="44.7891" lon="4.66795">
        <ele>718</ele>
        <time>2019-02-19T10:56:06Z</time>
      </trkpt>
      <trkpt lat="44.78908" lon="4.66763">
        <ele>727</ele>
        <time>2019-02-19T10:56:28Z</time>
      </trkpt>
      <trkpt lat="44.7891" lon="4.66736">
        <ele>727</ele>
        <time>2019-02-19T10:56:51Z</time>
      </trkpt>
      <trkpt lat="44.7891" lon="4.66715">
        <ele>732</ele>
        <time>2019-02-19T10:57:11Z</time>
      </trkpt>
      <trkpt lat="44.78911" lon="4.66704">
        <ele>739</ele>
        <time>2019-02-19T10:57:31Z</time>
      </trkpt>
      <trkpt lat="44.78914" lon="4.66685">
        <ele>739</ele>
        <time>2019-02-19T10:57:53Z</time>
      </trkpt>
      <trkpt lat="44.78918" lon="4.66666">
        <ele>745</ele>
        <time>2019-02-19T10:58:13Z</time>
      </trkpt>
      <trkpt lat="44.78915" lon="4.66647">
        <ele>750</ele>
        <time>2019-02-19T10:58:33Z</time>
      </trkpt>
      <trkpt lat="44.78913" lon="4.66628">
        <ele>750</ele>
        <time>2019-02-19T10:58:53Z</time>
      </trkpt>
      <trkpt lat="44.78909" lon="4.66609">
        <ele>754</ele>
        <time>2019-02-19T10:59:13Z</time>
      </trkpt>
      <trkpt lat="44.78912" lon="4.6659">
        <ele>757</ele>
        <time>2019-02-19T11:01:03Z</time>
      </trkpt>
      <trkpt lat="44.78903" lon="4.66575">
        <ele>757</ele>
        <time>2019-02-19T11:01:31Z</time>
      </trkpt>
      <trkpt lat="44.7889" lon="4.66568">
        <ele>765</ele>
        <time>2019-02-19T11:01:51Z</time>
      </trkpt>
      <trkpt lat="44.78876" lon="4.66564">
        <ele>765</ele>
        <time>2019-02-19T11:02:11Z</time>
      </trkpt>
      <trkpt lat="44.78863" lon="4.66559">
        <ele>772</ele>
        <time>2019-02-19T11:02:31Z</time>
      </trkpt>
      <trkpt lat="44.7885" lon="4.66565">
        <ele>772</ele>
        <time>2019-02-19T11:02:51Z</time>
      </trkpt>
      <trkpt lat="44.78838" lon="4.66555">
        <ele>776</ele>
        <time>2019-02-19T11:03:11Z</time>
      </trkpt>
      <trkpt lat="44.78833" lon="4.66537">
        <ele>781</ele>
        <time>2019-02-19T11:03:34Z</time>
      </trkpt>
      <trkpt lat="44.78822" lon="4.66522">
        <ele>781</ele>
        <time>2019-02-19T11:04:02Z</time>
      </trkpt>
      <trkpt lat="44.7881" lon="4.66513">
        <ele>778</ele>
        <time>2019-02-19T11:04:26Z</time>
      </trkpt>
      <trkpt lat="44.78804" lon="4.66493">
        <ele>778</ele>
        <time>2019-02-19T11:05:52Z</time>
      </trkpt>
      <trkpt lat="44.78788" lon="4.66468">
        <ele>776</ele>
        <time>2019-02-19T11:06:12Z</time>
      </trkpt>
      <trkpt lat="44.78774" lon="4.66456">
        <ele>774</ele>
        <time>2019-02-19T11:06:42Z</time>
      </trkpt>
      <trkpt lat="44.78758" lon="4.66435">
        <ele>775</ele>
        <time>2019-02-19T11:07:12Z</time>
      </trkpt>
      <trkpt lat="44.78747" lon="4.66424">
        <ele>773</ele>
        <time>2019-02-19T11:07:34Z</time>
      </trkpt>
      <trkpt lat="44.78731" lon="4.66409">
        <ele>772</ele>
        <time>2019-02-19T11:07:54Z</time>
      </trkpt>
      <trkpt lat="44.78717" lon="4.66381">
        <ele>774</ele>
        <time>2019-02-19T11:08:14Z</time>
      </trkpt>
      <trkpt lat="44.78713" lon="4.66352">
        <ele>775</ele>
        <time>2019-02-19T11:08:35Z</time>
      </trkpt>
      <trkpt lat="44.78709" lon="4.66323">
        <ele>775</ele>
        <time>2019-02-19T11:08:55Z</time>
      </trkpt>
      <trkpt lat="44.78703" lon="4.66293">
        <ele>771</ele>
        <time>2019-02-19T11:09:17Z</time>
      </trkpt>
      <trkpt lat="44.78695" lon="4.66267">
        <ele>772</ele>
        <time>2019-02-19T11:09:37Z</time>
      </trkpt>
      <trkpt lat="44.78684" lon="4.6624">
        <ele>772</ele>
        <time>2019-02-19T11:09:57Z</time>
      </trkpt>
      <trkpt lat="44.78673" lon="4.66227">
        <ele>771</ele>
        <time>2019-02-19T11:10:19Z</time>
      </trkpt>
      <trkpt lat="44.78656" lon="4.66214">
        <ele>771</ele>
        <time>2019-02-19T11:10:39Z</time>
      </trkpt>
      <trkpt lat="44.78636" lon="4.66195">
        <ele>762</ele>
        <time>2019-02-19T11:10:59Z</time>
      </trkpt>
      <trkpt lat="44.78622" lon="4.6618">
        <ele>756</ele>
        <time>2019-02-19T11:12:04Z</time>
      </trkpt>
      <trkpt lat="44.78608" lon="4.66161">
        <ele>756</ele>
        <time>2019-02-19T11:12:48Z</time>
      </trkpt>
      <trkpt lat="44.78599" lon="4.66142">
        <ele>752</ele>
        <time>2019-02-19T11:13:08Z</time>
      </trkpt>
      <trkpt lat="44.78582" lon="4.66115">
        <ele>744</ele>
        <time>2019-02-19T11:13:28Z</time>
      </trkpt>
      <trkpt lat="44.78567" lon="4.66092">
        <ele>735</ele>
        <time>2019-02-19T11:13:48Z</time>
      </trkpt>
      <trkpt lat="44.78554" lon="4.66064">
        <ele>730</ele>
        <time>2019-02-19T11:14:08Z</time>
      </trkpt>
      <trkpt lat="44.78537" lon="4.66039">
        <ele>727</ele>
        <time>2019-02-19T11:14:28Z</time>
      </trkpt>
      <trkpt lat="44.78516" lon="4.66015">
        <ele>727</ele>
        <time>2019-02-19T11:14:48Z</time>
      </trkpt>
      <trkpt lat="44.785" lon="4.66">
        <ele>724</ele>
        <time>2019-02-19T11:15:08Z</time>
      </trkpt>
      <trkpt lat="44.78495" lon="4.65982">
        <ele>721</ele>
        <time>2019-02-19T11:15:28Z</time>
      </trkpt>
      <trkpt lat="44.78483" lon="4.6596">
        <ele>723</ele>
        <time>2019-02-19T11:16:25Z</time>
      </trkpt>
      <trkpt lat="44.78469" lon="4.65934">
        <ele>726</ele>
        <time>2019-02-19T11:16:45Z</time>
      </trkpt>
      <trkpt lat="44.78457" lon="4.65915">
        <ele>732</ele>
        <time>2019-02-19T11:17:05Z</time>
      </trkpt>
      <trkpt lat="44.78446" lon="4.65895">
        <ele>734</ele>
        <time>2019-02-19T11:17:25Z</time>
      </trkpt>
      <trkpt lat="44.78431" lon="4.65871">
        <ele>741</ele>
        <time>2019-02-19T11:17:45Z</time>
      </trkpt>
      <trkpt lat="44.78418" lon="4.65845">
        <ele>739</ele>
        <time>2019-02-19T11:18:05Z</time>
      </trkpt>
      <trkpt lat="44.78406" lon="4.65814">
        <ele>736</ele>
        <time>2019-02-19T11:18:25Z</time>
      </trkpt>
      <trkpt lat="44.78398" lon="4.65788">
        <ele>742</ele>
        <time>2019-02-19T11:18:58Z</time>
      </trkpt>
      <trkpt lat="44.78388" lon="4.65763">
        <ele>739</ele>
        <time>2019-02-19T11:19:18Z</time>
      </trkpt>
      <trkpt lat="44.78374" lon="4.65737">
        <ele>753</ele>
        <time>2019-02-19T11:19:41Z</time>
      </trkpt>
      <trkpt lat="44.78357" lon="4.65711">
        <ele>751</ele>
        <time>2019-02-19T11:20:43Z</time>
      </trkpt>
      <trkpt lat="44.78345" lon="4.6568">
        <ele>755</ele>
        <time>2019-02-19T11:21:03Z</time>
      </trkpt>
      <trkpt lat="44.78337" lon="4.6565">
        <ele>750</ele>
        <time>2019-02-19T11:21:23Z</time>
      </trkpt>
      <trkpt lat="44.78333" lon="4.65631">
        <ele>750</ele>
        <time>2019-02-19T11:21:43Z</time>
      </trkpt>
      <trkpt lat="44.78327" lon="4.65597">
        <ele>748</ele>
        <time>2019-02-19T11:22:03Z</time>
      </trkpt>
      <trkpt lat="44.78325" lon="4.65569">
        <ele>751</ele>
        <time>2019-02-19T11:22:23Z</time>
      </trkpt>
      <trkpt lat="44.78329" lon="4.65544">
        <ele>751</ele>
        <time>2019-02-19T11:22:43Z</time>
      </trkpt>
      <trkpt lat="44.78331" lon="4.65525">
        <ele>755</ele>
        <time>2019-02-19T11:23:03Z</time>
      </trkpt>
      <trkpt lat="44.78332" lon="4.65504">
        <ele>760</ele>
        <time>2019-02-19T11:23:23Z</time>
      </trkpt>
      <trkpt lat="44.78333" lon="4.65484">
        <ele>764</ele>
        <time>2019-02-19T11:23:43Z</time>
      </trkpt>
      <trkpt lat="44.78344" lon="4.65465">
        <ele>764</ele>
        <time>2019-02-19T11:24:03Z</time>
      </trkpt>
      <trkpt lat="44.78358" lon="4.6545">
        <ele>765</ele>
        <time>2019-02-19T11:24:23Z</time>
      </trkpt>
      <trkpt lat="44.78361" lon="4.6543">
        <ele>768</ele>
        <time>2019-02-19T11:24:50Z</time>
      </trkpt>
      <trkpt lat="44.78355" lon="4.65413">
        <ele>768</ele>
        <time>2019-02-19T11:28:12Z</time>
      </trkpt>
      <trkpt lat="44.7834" lon="4.65394">
        <ele>776</ele>
        <time>2019-02-19T11:28:33Z</time>
      </trkpt>
      <trkpt lat="44.78326" lon="4.65382">
        <ele>776</ele>
        <time>2019-02-19T11:28:53Z</time>
      </trkpt>
      <trkpt lat="44.78317" lon="4.65367">
        <ele>782</ele>
        <time>2019-02-19T11:29:18Z</time>
      </trkpt>
      <trkpt lat="44.78301" lon="4.65342">
        <ele>781</ele>
        <time>2019-02-19T11:29:38Z</time>
      </trkpt>
      <trkpt lat="44.7828" lon="4.65316">
        <ele>780</ele>
        <time>2019-02-19T11:29:58Z</time>
      </trkpt>
      <trkpt lat="44.78265" lon="4.65292">
        <ele>780</ele>
        <time>2019-02-19T11:30:18Z</time>
      </trkpt>
      <trkpt lat="44.78251" lon="4.65269">
        <ele>779</ele>
        <time>2019-02-19T12:11:47Z</time>
      </trkpt>
      <trkpt lat="44.78235" lon="4.65237">
        <ele>780</ele>
        <time>2019-02-19T12:12:07Z</time>
      </trkpt>
      <trkpt lat="44.78223" lon="4.6522">
        <ele>785</ele>
        <time>2019-02-19T12:12:27Z</time>
      </trkpt>
      <trkpt lat="44.78208" lon="4.65203">
        <ele>786</ele>
        <time>2019-02-19T12:12:43Z</time>
      </trkpt>
      <trkpt lat="44.78192" lon="4.6518">
        <ele>795</ele>
        <time>2019-02-19T12:13:06Z</time>
      </trkpt>
      <trkpt lat="44.78174" lon="4.65156">
        <ele>791</ele>
        <time>2019-02-19T12:13:26Z</time>
      </trkpt>
      <trkpt lat="44.78154" lon="4.65138">
        <ele>798</ele>
        <time>2019-02-19T12:13:47Z</time>
      </trkpt>
      <trkpt lat="44.78142" lon="4.65112">
        <ele>800</ele>
        <time>2019-02-19T12:14:07Z</time>
      </trkpt>
      <trkpt lat="44.7813" lon="4.65083">
        <ele>802</ele>
        <time>2019-02-19T12:14:37Z</time>
      </trkpt>
      <trkpt lat="44.78115" lon="4.65051">
        <ele>799</ele>
        <time>2019-02-19T12:14:57Z</time>
      </trkpt>
      <trkpt lat="44.78104" lon="4.65024">
        <ele>803</ele>
        <time>2019-02-19T12:15:21Z</time>
      </trkpt>
      <trkpt lat="44.78085" lon="4.64991">
        <ele>802</ele>
        <time>2019-02-19T12:15:46Z</time>
      </trkpt>
      <trkpt lat="44.78069" lon="4.64967">
        <ele>801</ele>
        <time>2019-02-19T12:16:10Z</time>
      </trkpt>
      <trkpt lat="44.78053" lon="4.64943">
        <ele>803</ele>
        <time>2019-02-19T12:16:30Z</time>
      </trkpt>
      <trkpt lat="44.78034" lon="4.64922">
        <ele>804</ele>
        <time>2019-02-19T12:16:59Z</time>
      </trkpt>
      <trkpt lat="44.78013" lon="4.64907">
        <ele>800</ele>
        <time>2019-02-19T12:17:20Z</time>
      </trkpt>
      <trkpt lat="44.77993" lon="4.64885">
        <ele>808</ele>
        <time>2019-02-19T12:17:47Z</time>
      </trkpt>
      <trkpt lat="44.77973" lon="4.64871">
        <ele>814</ele>
        <time>2019-02-19T12:18:07Z</time>
      </trkpt>
      <trkpt lat="44.77954" lon="4.64859">
        <ele>812</ele>
        <time>2019-02-19T12:19:02Z</time>
      </trkpt>
      <trkpt lat="44.77932" lon="4.64844">
        <ele>816</ele>
        <time>2019-02-19T12:19:22Z</time>
      </trkpt>
      <trkpt lat="44.77921" lon="4.64833">
        <ele>812</ele>
        <time>2019-02-19T12:19:42Z</time>
      </trkpt>
      <trkpt lat="44.77909" lon="4.64814">
        <ele>814</ele>
        <time>2019-02-19T12:20:02Z</time>
      </trkpt>
      <trkpt lat="44.77897" lon="4.64797">
        <ele>807</ele>
        <time>2019-02-19T12:20:22Z</time>
      </trkpt>
      <trkpt lat="44.77886" lon="4.64773">
        <ele>808</ele>
        <time>2019-02-19T12:20:48Z</time>
      </trkpt>
      <trkpt lat="44.77876" lon="4.64742">
        <ele>812</ele>
        <time>2019-02-19T12:21:08Z</time>
      </trkpt>
      <trkpt lat="44.7787" lon="4.64713">
        <ele>806</ele>
        <time>2019-02-19T12:21:28Z</time>
      </trkpt>
      <trkpt lat="44.77856" lon="4.64681">
        <ele>806</ele>
        <time>2019-02-19T12:21:48Z</time>
      </trkpt>
      <trkpt lat="44.77847" lon="4.64656">
        <ele>808</ele>
        <time>2019-02-19T12:22:08Z</time>
      </trkpt>
      <trkpt lat="44.77843" lon="4.64638">
        <ele>803</ele>
        <time>2019-02-19T12:22:28Z</time>
      </trkpt>
      <trkpt lat="44.77833" lon="4.64619">
        <ele>804</ele>
        <time>2019-02-19T12:22:48Z</time>
      </trkpt>
      <trkpt lat="44.77822" lon="4.64589">
        <ele>807</ele>
        <time>2019-02-19T12:23:08Z</time>
      </trkpt>
      <trkpt lat="44.77813" lon="4.64558">
        <ele>803</ele>
        <time>2019-02-19T12:23:48Z</time>
      </trkpt>
      <trkpt lat="44.77801" lon="4.6453">
        <ele>804</ele>
        <time>2019-02-19T12:24:08Z</time>
      </trkpt>
      <trkpt lat="44.77786" lon="4.64507">
        <ele>798</ele>
        <time>2019-02-19T12:24:28Z</time>
      </trkpt>
      <trkpt lat="44.77775" lon="4.6448">
        <ele>800</ele>
        <time>2019-02-19T12:24:48Z</time>
      </trkpt>
      <trkpt lat="44.77763" lon="4.64446">
        <ele>799</ele>
        <time>2019-02-19T12:25:08Z</time>
      </trkpt>
      <trkpt lat="44.77752" lon="4.64412">
        <ele>798</ele>
        <time>2019-02-19T12:25:28Z</time>
      </trkpt>
      <trkpt lat="44.77738" lon="4.64386">
        <ele>796</ele>
        <time>2019-02-19T12:25:48Z</time>
      </trkpt>
      <trkpt lat="44.7772" lon="4.64389">
        <ele>796</ele>
        <time>2019-02-19T12:26:08Z</time>
      </trkpt>
      <trkpt lat="44.777" lon="4.64376">
        <ele>794</ele>
        <time>2019-02-19T12:26:28Z</time>
      </trkpt>
      <trkpt lat="44.77682" lon="4.6436">
        <ele>795</ele>
        <time>2019-02-19T12:26:48Z</time>
      </trkpt>
      <trkpt lat="44.77663" lon="4.64339">
        <ele>793</ele>
        <time>2019-02-19T12:27:08Z</time>
      </trkpt>
      <trkpt lat="44.77646" lon="4.64319">
        <ele>790</ele>
        <time>2019-02-19T12:27:28Z</time>
      </trkpt>
      <trkpt lat="44.77629" lon="4.64297">
        <ele>790</ele>
        <time>2019-02-19T12:28:06Z</time>
      </trkpt>
      <trkpt lat="44.77606" lon="4.64275">
        <ele>788</ele>
        <time>2019-02-19T12:28:26Z</time>
      </trkpt>
      <trkpt lat="44.77586" lon="4.64251">
        <ele>784</ele>
        <time>2019-02-19T12:28:46Z</time>
      </trkpt>
      <trkpt lat="44.77565" lon="4.64227">
        <ele>782</ele>
        <time>2019-02-19T12:29:06Z</time>
      </trkpt>
      <trkpt lat="44.77549" lon="4.64205">
        <ele>779</ele>
        <time>2019-02-19T12:29:26Z</time>
      </trkpt>
      <trkpt lat="44.77535" lon="4.64182">
        <ele>785</ele>
        <time>2019-02-19T12:29:46Z</time>
      </trkpt>
      <trkpt lat="44.77518" lon="4.64155">
        <ele>783</ele>
        <time>2019-02-19T12:30:06Z</time>
      </trkpt>
      <trkpt lat="44.775" lon="4.64128">
        <ele>783</ele>
        <time>2019-02-19T12:30:26Z</time>
      </trkpt>
      <trkpt lat="44.77481" lon="4.64106">
        <ele>781</ele>
        <time>2019-02-19T12:30:46Z</time>
      </trkpt>
      <trkpt lat="44.77456" lon="4.64087">
        <ele>777</ele>
        <time>2019-02-19T12:31:06Z</time>
      </trkpt>
      <trkpt lat="44.77434" lon="4.64068">
        <ele>777</ele>
        <time>2019-02-19T12:31:26Z</time>
      </trkpt>
      <trkpt lat="44.77425" lon="4.64046">
        <ele>777</ele>
        <time>2019-02-19T12:31:46Z</time>
      </trkpt>
      <trkpt lat="44.77417" lon="4.6403">
        <ele>781</ele>
        <time>2019-02-19T12:32:06Z</time>
      </trkpt>
      <trkpt lat="44.77403" lon="4.64007">
        <ele>782</ele>
        <time>2019-02-19T12:32:26Z</time>
      </trkpt>
      <trkpt lat="44.77391" lon="4.63984">
        <ele>783</ele>
        <time>2019-02-19T12:33:30Z</time>
      </trkpt>
      <trkpt lat="44.7738" lon="4.6396">
        <ele>783</ele>
        <time>2019-02-19T12:33:50Z</time>
      </trkpt>
      <trkpt lat="44.77369" lon="4.63937">
        <ele>784</ele>
        <time>2019-02-19T12:34:10Z</time>
      </trkpt>
      <trkpt lat="44.77355" lon="4.63915">
        <ele>786</ele>
        <time>2019-02-19T12:34:30Z</time>
      </trkpt>
      <trkpt lat="44.77339" lon="4.6389">
        <ele>790</ele>
        <time>2019-02-19T12:35:10Z</time>
      </trkpt>
      <trkpt lat="44.77323" lon="4.63863">
        <ele>791</ele>
        <time>2019-02-19T12:35:30Z</time>
      </trkpt>
      <trkpt lat="44.77304" lon="4.63841">
        <ele>792</ele>
        <time>2019-02-19T12:35:52Z</time>
      </trkpt>
      <trkpt lat="44.77286" lon="4.63827">
        <ele>794</ele>
        <time>2019-02-19T12:36:12Z</time>
      </trkpt>
      <trkpt lat="44.77263" lon="4.63818">
        <ele>799</ele>
        <time>2019-02-19T12:36:32Z</time>
      </trkpt>
      <trkpt lat="44.77256" lon="4.63791">
        <ele>797</ele>
        <time>2019-02-19T12:36:52Z</time>
      </trkpt>
      <trkpt lat="44.77251" lon="4.63773">
        <ele>797</ele>
        <time>2019-02-19T12:37:39Z</time>
      </trkpt>
      <trkpt lat="44.77233" lon="4.63741">
        <ele>799</ele>
        <time>2019-02-19T12:37:59Z</time>
      </trkpt>
      <trkpt lat="44.77223" lon="4.63713">
        <ele>797</ele>
        <time>2019-02-19T12:38:19Z</time>
      </trkpt>
      <trkpt lat="44.77212" lon="4.63682">
        <ele>794</ele>
        <time>2019-02-19T12:38:47Z</time>
      </trkpt>
      <trkpt lat="44.77202" lon="4.63646">
        <ele>798</ele>
        <time>2019-02-19T12:39:07Z</time>
      </trkpt>
      <trkpt lat="44.77194" lon="4.63619">
        <ele>797</ele>
        <time>2019-02-19T12:39:27Z</time>
      </trkpt>
      <trkpt lat="44.77185" lon="4.63586">
        <ele>798</ele>
        <time>2019-02-19T12:39:47Z</time>
      </trkpt>
      <trkpt lat="44.77178" lon="4.63554">
        <ele>805</ele>
        <time>2019-02-19T12:40:07Z</time>
      </trkpt>
      <trkpt lat="44.77173" lon="4.63519">
        <ele>805</ele>
        <time>2019-02-19T12:40:27Z</time>
      </trkpt>
      <trkpt lat="44.77167" lon="4.63491">
        <ele>805</ele>
        <time>2019-02-19T12:40:47Z</time>
      </trkpt>
      <trkpt lat="44.77169" lon="4.63462">
        <ele>803</ele>
        <time>2019-02-19T12:41:07Z</time>
      </trkpt>
      <trkpt lat="44.7717" lon="4.6343">
        <ele>803</ele>
        <time>2019-02-19T12:41:27Z</time>
      </trkpt>
      <trkpt lat="44.77168" lon="4.6339">
        <ele>804</ele>
        <time>2019-02-19T12:41:47Z</time>
      </trkpt>
      <trkpt lat="44.77161" lon="4.63361">
        <ele>804</ele>
        <time>2019-02-19T12:42:07Z</time>
      </trkpt>
      <trkpt lat="44.7715" lon="4.63335">
        <ele>808</ele>
        <time>2019-02-19T12:42:27Z</time>
      </trkpt>
      <trkpt lat="44.77134" lon="4.63309">
        <ele>806</ele>
        <time>2019-02-19T12:42:47Z</time>
      </trkpt>
      <trkpt lat="44.77114" lon="4.63295">
        <ele>807</ele>
        <time>2019-02-19T12:43:07Z</time>
      </trkpt>
      <trkpt lat="44.77093" lon="4.63295">
        <ele>805</ele>
        <time>2019-02-19T12:43:27Z</time>
      </trkpt>
      <trkpt lat="44.77067" lon="4.63297">
        <ele>806</ele>
        <time>2019-02-19T12:43:47Z</time>
      </trkpt>
      <trkpt lat="44.77047" lon="4.63294">
        <ele>806</ele>
        <time>2019-02-19T12:44:07Z</time>
      </trkpt>
      <trkpt lat="44.77024" lon="4.63283">
        <ele>798</ele>
        <time>2019-02-19T12:44:27Z</time>
      </trkpt>
      <trkpt lat="44.76998" lon="4.63266">
        <ele>803</ele>
        <time>2019-02-19T12:44:47Z</time>
      </trkpt>
      <trkpt lat="44.76979" lon="4.63256">
        <ele>797</ele>
        <time>2019-02-19T12:45:07Z</time>
      </trkpt>
      <trkpt lat="44.76953" lon="4.63233">
        <ele>793</ele>
        <time>2019-02-19T12:45:27Z</time>
      </trkpt>
      <trkpt lat="44.76935" lon="4.63221">
        <ele>793</ele>
        <time>2019-02-19T12:45:47Z</time>
      </trkpt>
      <trkpt lat="44.7692" lon="4.63203">
        <ele>790</ele>
        <time>2019-02-19T12:46:07Z</time>
      </trkpt>
      <trkpt lat="44.76899" lon="4.63177">
        <ele>783</ele>
        <time>2019-02-19T12:46:27Z</time>
      </trkpt>
      <trkpt lat="44.76881" lon="4.63159">
        <ele>783</ele>
        <time>2019-02-19T12:46:51Z</time>
      </trkpt>
      <trkpt lat="44.76859" lon="4.63138">
        <ele>780</ele>
        <time>2019-02-19T12:47:11Z</time>
      </trkpt>
      <trkpt lat="44.76837" lon="4.63115">
        <ele>777</ele>
        <time>2019-02-19T12:47:31Z</time>
      </trkpt>
      <trkpt lat="44.76819" lon="4.63093">
        <ele>779</ele>
        <time>2019-02-19T12:47:51Z</time>
      </trkpt>
      <trkpt lat="44.76805" lon="4.63067">
        <ele>775</ele>
        <time>2019-02-19T12:48:11Z</time>
      </trkpt>
      <trkpt lat="44.76792" lon="4.63039">
        <ele>778</ele>
        <time>2019-02-19T12:48:31Z</time>
      </trkpt>
      <trkpt lat="44.76788" lon="4.62995">
        <ele>773</ele>
        <time>2019-02-19T12:48:51Z</time>
      </trkpt>
      <trkpt lat="44.76785" lon="4.62969">
        <ele>769</ele>
        <time>2019-02-19T12:49:11Z</time>
      </trkpt>
      <trkpt lat="44.76772" lon="4.62946">
        <ele>764</ele>
        <time>2019-02-19T12:50:33Z</time>
      </trkpt>
      <trkpt lat="44.76754" lon="4.62922">
        <ele>759</ele>
        <time>2019-02-19T12:50:53Z</time>
      </trkpt>
      <trkpt lat="44.76738" lon="4.62902">
        <ele>754</ele>
        <time>2019-02-19T12:51:13Z</time>
      </trkpt>
      <trkpt lat="44.76723" lon="4.62877">
        <ele>757</ele>
        <time>2019-02-19T12:51:33Z</time>
      </trkpt>
      <trkpt lat="44.76703" lon="4.62856">
        <ele>749</ele>
        <time>2019-02-19T12:51:53Z</time>
      </trkpt>
      <trkpt lat="44.76682" lon="4.62846">
        <ele>742</ele>
        <time>2019-02-19T12:52:13Z</time>
      </trkpt>
      <trkpt lat="44.7666" lon="4.62845">
        <ele>741</ele>
        <time>2019-02-19T12:52:33Z</time>
      </trkpt>
      <trkpt lat="44.76663" lon="4.62826">
        <ele>741</ele>
        <time>2019-02-19T12:52:53Z</time>
      </trkpt>
      <trkpt lat="44.76674" lon="4.62812">
        <ele>735</ele>
        <time>2019-02-19T12:53:13Z</time>
      </trkpt>
      <trkpt lat="44.76661" lon="4.62795">
        <ele>735</ele>
        <time>2019-02-19T12:53:33Z</time>
      </trkpt>
      <trkpt lat="44.76644" lon="4.628">
        <ele>732</ele>
        <time>2019-02-19T12:53:53Z</time>
      </trkpt>
      <trkpt lat="44.76621" lon="4.62805">
        <ele>727</ele>
        <time>2019-02-19T12:54:13Z</time>
      </trkpt>
      <trkpt lat="44.76621" lon="4.62786">
        <ele>720</ele>
        <time>2019-02-19T12:54:33Z</time>
      </trkpt>
      <trkpt lat="44.76633" lon="4.62763">
        <ele>720</ele>
        <time>2019-02-19T12:54:53Z</time>
      </trkpt>
      <trkpt lat="44.76646" lon="4.62744">
        <ele>720</ele>
        <time>2019-02-19T12:55:13Z</time>
      </trkpt>
      <trkpt lat="44.76645" lon="4.62725">
        <ele>713</ele>
        <time>2019-02-19T12:55:33Z</time>
      </trkpt>
      <trkpt lat="44.7664" lon="4.62704">
        <ele>707</ele>
        <time>2019-02-19T12:55:53Z</time>
      </trkpt>
      <trkpt lat="44.76628" lon="4.62691">
        <ele>707</ele>
        <time>2019-02-19T12:56:13Z</time>
      </trkpt>
      <trkpt lat="44.76609" lon="4.62684">
        <ele>703</ele>
        <time>2019-02-19T12:56:33Z</time>
      </trkpt>
      <trkpt lat="44.76589" lon="4.62677">
        <ele>691</ele>
        <time>2019-02-19T12:56:53Z</time>
      </trkpt>
      <trkpt lat="44.76568" lon="4.62679">
        <ele>686</ele>
        <time>2019-02-19T12:57:13Z</time>
      </trkpt>
      <trkpt lat="44.76542" lon="4.62691">
        <ele>692</ele>
        <time>2019-02-19T12:57:33Z</time>
      </trkpt>
      <trkpt lat="44.76522" lon="4.62702">
        <ele>682</ele>
        <time>2019-02-19T12:57:53Z</time>
      </trkpt>
      <trkpt lat="44.76501" lon="4.62723">
        <ele>677</ele>
        <time>2019-02-19T12:58:13Z</time>
      </trkpt>
      <trkpt lat="44.76485" lon="4.62731">
        <ele>670</ele>
        <time>2019-02-19T12:58:33Z</time>
      </trkpt>
      <trkpt lat="44.76491" lon="4.62706">
        <ele>674</ele>
        <time>2019-02-19T12:58:53Z</time>
      </trkpt>
      <trkpt lat="44.76499" lon="4.6268">
        <ele>670</ele>
        <time>2019-02-19T12:59:13Z</time>
      </trkpt>
      <trkpt lat="44.76489" lon="4.62663">
        <ele>670</ele>
        <time>2019-02-19T12:59:57Z</time>
      </trkpt>
      <trkpt lat="44.76478" lon="4.62651">
        <ele>660</ele>
        <time>2019-02-19T13:00:17Z</time>
      </trkpt>
      <trkpt lat="44.76466" lon="4.62633">
        <ele>660</ele>
        <time>2019-02-19T13:00:37Z</time>
      </trkpt>
      <trkpt lat="44.76446" lon="4.62618">
        <ele>650</ele>
        <time>2019-02-19T13:00:57Z</time>
      </trkpt>
      <trkpt lat="44.76428" lon="4.6262">
        <ele>643</ele>
        <time>2019-02-19T13:01:17Z</time>
      </trkpt>
      <trkpt lat="44.76416" lon="4.62628">
        <ele>646</ele>
        <time>2019-02-19T13:01:37Z</time>
      </trkpt>
      <trkpt lat="44.76403" lon="4.62635">
        <ele>646</ele>
        <time>2019-02-19T13:01:57Z</time>
      </trkpt>
      <trkpt lat="44.76389" lon="4.62627">
        <ele>639</ele>
        <time>2019-02-19T13:02:17Z</time>
      </trkpt>
      <trkpt lat="44.7637" lon="4.6261">
        <ele>631</ele>
        <time>2019-02-19T13:02:37Z</time>
      </trkpt>
      <trkpt lat="44.76353" lon="4.62587">
        <ele>631</ele>
        <time>2019-02-19T13:02:57Z</time>
      </trkpt>
      <trkpt lat="44.76333" lon="4.62567">
        <ele>626</ele>
        <time>2019-02-19T13:03:17Z</time>
      </trkpt>
      <trkpt lat="44.76322" lon="4.62545">
        <ele>626</ele>
        <time>2019-02-19T13:03:37Z</time>
      </trkpt>
      <trkpt lat="44.76299" lon="4.62522">
        <ele>621</ele>
        <time>2019-02-19T13:03:57Z</time>
      </trkpt>
      <trkpt lat="44.7628" lon="4.62519">
        <ele>617</ele>
        <time>2019-02-19T13:04:17Z</time>
      </trkpt>
      <trkpt lat="44.76262" lon="4.62525">
        <ele>615</ele>
        <time>2019-02-19T13:04:37Z</time>
      </trkpt>
      <trkpt lat="44.76247" lon="4.62524">
        <ele>615</ele>
        <time>2019-02-19T13:04:57Z</time>
      </trkpt>
      <trkpt lat="44.76231" lon="4.6251">
        <ele>616</ele>
        <time>2019-02-19T13:05:17Z</time>
      </trkpt>
      <trkpt lat="44.76204" lon="4.62505">
        <ele>609</ele>
        <time>2019-02-19T13:05:37Z</time>
      </trkpt>
      <trkpt lat="44.76177" lon="4.625">
        <ele>603</ele>
        <time>2019-02-19T13:05:57Z</time>
      </trkpt>
      <trkpt lat="44.76146" lon="4.62498">
        <ele>599</ele>
        <time>2019-02-19T13:06:17Z</time>
      </trkpt>
      <trkpt lat="44.76131" lon="4.62511">
        <ele>599</ele>
        <time>2019-02-19T13:06:37Z</time>
      </trkpt>
      <trkpt lat="44.7614" lon="4.62534">
        <ele>596</ele>
        <time>2019-02-19T13:06:57Z</time>
      </trkpt>
      <trkpt lat="44.76157" lon="4.62557">
        <ele>597</ele>
        <time>2019-02-19T13:07:17Z</time>
      </trkpt>
      <trkpt lat="44.76171" lon="4.62581">
        <ele>588</ele>
        <time>2019-02-19T13:07:37Z</time>
      </trkpt>
      <trkpt lat="44.76196" lon="4.62597">
        <ele>594</ele>
        <time>2019-02-19T13:07:57Z</time>
      </trkpt>
      <trkpt lat="44.76228" lon="4.62628">
        <ele>585</ele>
        <time>2019-02-19T13:08:17Z</time>
      </trkpt>
      <trkpt lat="44.76247" lon="4.62645">
        <ele>591</ele>
        <time>2019-02-19T13:08:37Z</time>
      </trkpt>
      <trkpt lat="44.76263" lon="4.62667">
        <ele>589</ele>
        <time>2019-02-19T13:08:57Z</time>
      </trkpt>
      <trkpt lat="44.76257" lon="4.62684">
        <ele>590</ele>
        <time>2019-02-19T13:09:17Z</time>
      </trkpt>
      <trkpt lat="44.76242" lon="4.62704">
        <ele>590</ele>
        <time>2019-02-19T13:09:37Z</time>
      </trkpt>
      <trkpt lat="44.76224" lon="4.62725">
        <ele>586</ele>
        <time>2019-02-19T13:09:57Z</time>
      </trkpt>
      <trkpt lat="44.76205" lon="4.62745">
        <ele>580</ele>
        <time>2019-02-19T13:10:17Z</time>
      </trkpt>
      <trkpt lat="44.76187" lon="4.62764">
        <ele>585</ele>
        <time>2019-02-19T13:10:37Z</time>
      </trkpt>
      <trkpt lat="44.76174" lon="4.62781">
        <ele>575</ele>
        <time>2019-02-19T13:10:57Z</time>
      </trkpt>
      <trkpt lat="44.76175" lon="4.6281">
        <ele>578</ele>
        <time>2019-02-19T13:11:17Z</time>
      </trkpt>
      <trkpt lat="44.76156" lon="4.62838">
        <ele>580</ele>
        <time>2019-02-19T13:11:37Z</time>
      </trkpt>
      <trkpt lat="44.76134" lon="4.62853">
        <ele>572</ele>
        <time>2019-02-19T13:11:57Z</time>
      </trkpt>
      <trkpt lat="44.76114" lon="4.62861">
        <ele>562</ele>
        <time>2019-02-19T13:12:17Z</time>
      </trkpt>
      <trkpt lat="44.76082" lon="4.62865">
        <ele>555</ele>
        <time>2019-02-19T13:12:37Z</time>
      </trkpt>
      <trkpt lat="44.76061" lon="4.62866">
        <ele>547</ele>
        <time>2019-02-19T13:12:57Z</time>
      </trkpt>
      <trkpt lat="44.76037" lon="4.62868">
        <ele>539</ele>
        <time>2019-02-19T13:13:17Z</time>
      </trkpt>
      <trkpt lat="44.7601" lon="4.62873">
        <ele>536</ele>
        <time>2019-02-19T13:13:37Z</time>
      </trkpt>
      <trkpt lat="44.76015" lon="4.62852">
        <ele>539</ele>
        <time>2019-02-19T13:13:57Z</time>
      </trkpt>
      <trkpt lat="44.76004" lon="4.62839">
        <ele>534</ele>
        <time>2019-02-19T13:14:17Z</time>
      </trkpt>
      <trkpt lat="44.75983" lon="4.62842">
        <ele>531</ele>
        <time>2019-02-19T13:14:37Z</time>
      </trkpt>
      <trkpt lat="44.75958" lon="4.62847">
        <ele>531</ele>
        <time>2019-02-19T13:14:57Z</time>
      </trkpt>
      <trkpt lat="44.75936" lon="4.62855">
        <ele>527</ele>
        <time>2019-02-19T13:15:17Z</time>
      </trkpt>
      <trkpt lat="44.75929" lon="4.62874">
        <ele>516</ele>
        <time>2019-02-19T13:15:37Z</time>
      </trkpt>
      <trkpt lat="44.7593" lon="4.62898">
        <ele>516</ele>
        <time>2019-02-19T13:15:57Z</time>
      </trkpt>
      <trkpt lat="44.75939" lon="4.62921">
        <ele>524</ele>
        <time>2019-02-19T13:16:17Z</time>
      </trkpt>
      <trkpt lat="44.75927" lon="4.62952">
        <ele>515</ele>
        <time>2019-02-19T13:16:37Z</time>
      </trkpt>
      <trkpt lat="44.75903" lon="4.62944">
        <ele>515</ele>
        <time>2019-02-19T13:16:57Z</time>
      </trkpt>
      <trkpt lat="44.75888" lon="4.62928">
        <ele>508</ele>
        <time>2019-02-19T13:17:17Z</time>
      </trkpt>
      <trkpt lat="44.75865" lon="4.62917">
        <ele>513</ele>
        <time>2019-02-19T13:17:37Z</time>
      </trkpt>
      <trkpt lat="44.75842" lon="4.629">
        <ele>511</ele>
        <time>2019-02-19T13:17:57Z</time>
      </trkpt>
      <trkpt lat="44.75819" lon="4.62886">
        <ele>513</ele>
        <time>2019-02-19T13:18:17Z</time>
      </trkpt>
      <trkpt lat="44.75799" lon="4.62877">
        <ele>513</ele>
        <time>2019-02-19T13:18:37Z</time>
      </trkpt>
      <trkpt lat="44.75766" lon="4.62874">
        <ele>504</ele>
        <time>2019-02-19T13:18:57Z</time>
      </trkpt>
      <trkpt lat="44.75739" lon="4.62878">
        <ele>512</ele>
        <time>2019-02-19T13:19:17Z</time>
      </trkpt>
      <trkpt lat="44.75718" lon="4.62885">
        <ele>505</ele>
        <time>2019-02-19T13:19:45Z</time>
      </trkpt>
      <trkpt lat="44.75705" lon="4.62892">
        <ele>500</ele>
        <time>2019-02-19T13:20:05Z</time>
      </trkpt>
      <trkpt lat="44.75687" lon="4.62898">
        <ele>500</ele>
        <time>2019-02-19T13:20:25Z</time>
      </trkpt>
      <trkpt lat="44.75667" lon="4.62912">
        <ele>501</ele>
        <time>2019-02-19T13:20:46Z</time>
      </trkpt>
      <trkpt lat="44.7564" lon="4.62927">
        <ele>493</ele>
        <time>2019-02-19T13:21:06Z</time>
      </trkpt>
      <trkpt lat="44.75617" lon="4.62939">
        <ele>498</ele>
        <time>2019-02-19T13:21:26Z</time>
      </trkpt>
      <trkpt lat="44.75598" lon="4.6295">
        <ele>498</ele>
        <time>2019-02-19T13:21:46Z</time>
      </trkpt>
      <trkpt lat="44.75576" lon="4.62968">
        <ele>503</ele>
        <time>2019-02-19T13:22:06Z</time>
      </trkpt>
      <trkpt lat="44.75551" lon="4.62978">
        <ele>494</ele>
        <time>2019-02-19T13:22:26Z</time>
      </trkpt>
      <trkpt lat="44.75533" lon="4.6298">
        <ele>491</ele>
        <time>2019-02-19T13:22:46Z</time>
      </trkpt>
      <trkpt lat="44.75511" lon="4.62977">
        <ele>491</ele>
        <time>2019-02-19T13:23:06Z</time>
      </trkpt>
      <trkpt lat="44.75486" lon="4.6297">
        <ele>491</ele>
        <time>2019-02-19T13:23:26Z</time>
      </trkpt>
      <trkpt lat="44.75463" lon="4.62954">
        <ele>478</ele>
        <time>2019-02-19T13:23:46Z</time>
      </trkpt>
      <trkpt lat="44.75441" lon="4.62947">
        <ele>476</ele>
        <time>2019-02-19T13:24:06Z</time>
      </trkpt>
      <trkpt lat="44.75425" lon="4.62942">
        <ele>484</ele>
        <time>2019-02-19T13:24:26Z</time>
      </trkpt>
      <trkpt lat="44.75399" lon="4.62927">
        <ele>481</ele>
        <time>2019-02-19T13:24:46Z</time>
      </trkpt>
      <trkpt lat="44.75369" lon="4.6291">
        <ele>484</ele>
        <time>2019-02-19T13:25:15Z</time>
      </trkpt>
      <trkpt lat="44.75349" lon="4.62895">
        <ele>478</ele>
        <time>2019-02-19T13:25:35Z</time>
      </trkpt>
      <trkpt lat="44.75329" lon="4.62886">
        <ele>480</ele>
        <time>2019-02-19T13:25:55Z</time>
      </trkpt>
      <trkpt lat="44.75309" lon="4.62895">
        <ele>476</ele>
        <time>2019-02-19T13:26:15Z</time>
      </trkpt>
      <trkpt lat="44.7529" lon="4.62908">
        <ele>481</ele>
        <time>2019-02-19T13:26:47Z</time>
      </trkpt>
      <trkpt lat="44.75272" lon="4.62925">
        <ele>481</ele>
        <time>2019-02-19T13:27:43Z</time>
      </trkpt>
      <trkpt lat="44.75254" lon="4.6294">
        <ele>481</ele>
        <time>2019-02-19T13:28:03Z</time>
      </trkpt>
      <trkpt lat="44.75256" lon="4.62962">
        <ele>482</ele>
        <time>2019-02-19T13:28:23Z</time>
      </trkpt>
      <trkpt lat="44.75257" lon="4.62992">
        <ele>478</ele>
        <time>2019-02-19T13:28:43Z</time>
      </trkpt>
      <trkpt lat="44.7526" lon="4.63013">
        <ele>478</ele>
        <time>2019-02-19T13:29:03Z</time>
      </trkpt>
      <trkpt lat="44.75247" lon="4.6302">
        <ele>474</ele>
        <time>2019-02-19T13:29:23Z</time>
      </trkpt>
      <trkpt lat="44.75223" lon="4.63017">
        <ele>465</ele>
        <time>2019-02-19T13:29:43Z</time>
      </trkpt>
      <trkpt lat="44.75209" lon="4.63007">
        <ele>471</ele>
        <time>2019-02-19T13:30:03Z</time>
      </trkpt>
      <trkpt lat="44.75193" lon="4.62999">
        <ele>463</ele>
        <time>2019-02-19T13:30:23Z</time>
      </trkpt>
      <trkpt lat="44.75165" lon="4.62982">
        <ele>457</ele>
        <time>2019-02-19T13:30:43Z</time>
      </trkpt>
      <trkpt lat="44.75144" lon="4.62962">
        <ele>451</ele>
        <time>2019-02-19T13:31:03Z</time>
      </trkpt>
      <trkpt lat="44.75146" lon="4.62943">
        <ele>451</ele>
        <time>2019-02-19T13:31:23Z</time>
      </trkpt>
      <trkpt lat="44.75139" lon="4.62913">
        <ele>447</ele>
        <time>2019-02-19T13:31:43Z</time>
      </trkpt>
      <trkpt lat="44.75119" lon="4.6291">
        <ele>442</ele>
        <time>2019-02-19T13:32:03Z</time>
      </trkpt>
      <trkpt lat="44.75104" lon="4.62908">
        <ele>442</ele>
        <time>2019-02-19T13:32:23Z</time>
      </trkpt>
      <trkpt lat="44.75088" lon="4.62888">
        <ele>435</ele>
        <time>2019-02-19T13:32:43Z</time>
      </trkpt>
      <trkpt lat="44.75068" lon="4.62868">
        <ele>429</ele>
        <time>2019-02-19T13:33:03Z</time>
      </trkpt>
      <trkpt lat="44.75053" lon="4.6285">
        <ele>429</ele>
        <time>2019-02-19T13:33:23Z</time>
      </trkpt>
      <trkpt lat="44.75037" lon="4.62824">
        <ele>422</ele>
        <time>2019-02-19T13:33:43Z</time>
      </trkpt>
      <trkpt lat="44.75014" lon="4.62808">
        <ele>416</ele>
        <time>2019-02-19T13:34:03Z</time>
      </trkpt>
      <trkpt lat="44.74989" lon="4.62801">
        <ele>413</ele>
        <time>2019-02-19T13:34:23Z</time>
      </trkpt>
      <trkpt lat="44.74973" lon="4.62795">
        <ele>407</ele>
        <time>2019-02-19T13:34:43Z</time>
      </trkpt>
      <trkpt lat="44.74954" lon="4.62793">
        <ele>397</ele>
        <time>2019-02-19T13:35:07Z</time>
      </trkpt>
      <trkpt lat="44.74944" lon="4.62803">
        <ele>397</ele>
        <time>2019-02-19T13:35:27Z</time>
      </trkpt>
      <trkpt lat="44.74943" lon="4.62811">
        <ele>397</ele>
        <time>2019-02-19T13:35:47Z</time>
      </trkpt>
      <trkpt lat="44.74927" lon="4.62814">
        <ele>388</ele>
        <time>2019-02-19T13:36:07Z</time>
      </trkpt>
      <trkpt lat="44.74908" lon="4.62821">
        <ele>387</ele>
        <time>2019-02-19T13:36:27Z</time>
      </trkpt>
      <trkpt lat="44.74895" lon="4.62834">
        <ele>379</ele>
        <time>2019-02-19T13:36:47Z</time>
      </trkpt>
      <trkpt lat="44.74882" lon="4.62842">
        <ele>379</ele>
        <time>2019-02-19T13:37:07Z</time>
      </trkpt>
      <trkpt lat="44.74881" lon="4.62847">
        <ele>379</ele>
        <time>2019-02-19T13:37:27Z</time>
      </trkpt>
    </trkseg>
  </trk>
</gpx>